PORTS® Data Listing: 9414750 Alameda, CA

CO-OPS RAW PORTS DATA

************************      PRELIMINARY DATA      ************************** 

     THIS RAW DATA HAS NOT BEEN SUBJECT TO THE NATIONAL OCEAN SERVICE'S        
     QUALITY CONTROL OR QUALITY ASSURANCE PROCEDURES AND DOES NOT MEET         
     THE CRITERIA AND STANDARDS OF OFFICIAL NATIONAL OCEAN SERVICE             
     DATA.  IT IS RELEASED FOR LIMITED PUBLIC USE AS PRELIMINARY DATA TO       
     BE USED ONLY WITH APPROPRIATE CAUTION.                                    

************************      PRELIMINARY DATA      ************************** 


       CD   -   Calendar date
       T    -   Time
       TZ   -   Timezone
       PW   -   Predicted water level (feet above MLLW)
       OW   -   Observed water level (feet above MLLW)
       WS   -   Wind speed (knots)
       WD   -   Wind direction (degrees true)
       WG   -   Wind gust (knots)
       AT   -   Air temperature (degrees farenheit)
       WT   -   Water temperature (degrees farenheit)
       AP   -   Air pressure (millibars)
       SA   -   Salinty (PSU - Practical Salinity Units)
       SG   -   Specific gravity
       RH   -   Relative humidity
       AG   -   Air gap (feet)
       VI   -   Visibility (nautical miles)

       ** NOTE **
       A variable that has its data fields filled with "9"s, indicates that
       data was not collected for that sample period.
       **********


STATION NAME: Alameda (9414750)
****************************************************************************************************
    CD       T    TZ    PW     OW    WS   WD   WG    AT    WT    AP    SA    SG     RH    AG   VI
****************************************************************************************************
2019/10/14 08:42 PDT    2.57   2.77    2  340    4  55.0  62.1 1015.3 -9.9 -9.999 -99.9 -99.99 -9.99
2019/10/14 08:48 PDT    2.68   2.89    3  335    4  54.9  62.1 1015.3 -9.9 -9.999 -99.9 -99.99 -9.99
2019/10/14 08:54 PDT    2.79   3.02    2  339    4  55.0  62.1 1015.4 -9.9 -9.999 -99.9 -99.99 -9.99
2019/10/14 09:00 PDT    2.90   3.12    1  332    2  55.6  62.1 1015.4 -9.9 -9.999 -99.9 -99.99 -9.99
2019/10/14 09:06 PDT    3.01   3.24    1  309    2  55.6  62.1 1015.5 -9.9 -9.999 -99.9 -99.99 -9.99
2019/10/14 09:12 PDT    3.13   3.36    1  171    1  56.5  62.1 1015.4 -9.9 -9.999 -99.9 -99.99 -9.99
2019/10/14 09:18 PDT    3.25   3.49    2  105    4  56.3  62.1 1015.4 -9.9 -9.999 -99.9 -99.99 -9.99
2019/10/14 09:24 PDT    3.37   3.59    1  219    2  56.3  62.1 1015.4 -9.9 -9.999 -99.9 -99.99 -9.99
2019/10/14 09:30 PDT    3.49   3.69    2  104    3  56.7  62.1 1015.4 -9.9 -9.999 -99.9 -99.99 -9.99
2019/10/14 09:36 PDT    3.62   3.83    2  194    2  56.8  62.1 1015.6 -9.9 -9.999 -99.9 -99.99 -9.99
2019/10/14 09:42 PDT    3.74   3.97    1  138    2  57.2  62.1 1015.6 -9.9 -9.999 -99.9 -99.99 -9.99
2019/10/14 09:48 PDT    3.86   4.08    1  189    3  57.0  62.1 1015.7 -9.9 -9.999 -99.9 -99.99 -9.99
2019/10/14 09:54 PDT    3.99   4.17    2  208    3  56.7  62.1 1015.8 -9.9 -9.999 -99.9 -99.99 -9.99
2019/10/14 10:00 PDT    4.11   4.29    2  213    3  56.5  62.1 1015.9 -9.9 -9.999 -99.9 -99.99 -9.99
2019/10/14 10:06 PDT    4.23   4.43    2  219    4  56.3  62.1 1016.0 -9.9 -9.999 -99.9 -99.99 -9.99
2019/10/14 10:12 PDT    4.35   4.54    2  232    3  56.3  62.1 1016.0 -9.9 -9.999 -99.9 -99.99 -9.99
2019/10/14 10:18 PDT    4.47   4.63    2  230    3  56.3  62.1 1016.1 -9.9 -9.999 -99.9 -99.99 -9.99
2019/10/14 10:24 PDT    4.59   4.74    3  247    4  56.3  62.1 1016.2 -9.9 -9.999 -99.9 -99.99 -9.99
2019/10/14 10:30 PDT    4.70   4.85    3  254    4  56.3  62.1 1016.3 -9.9 -9.999 -99.9 -99.99 -9.99
2019/10/14 10:36 PDT    4.82   4.96    4  255    5  56.3  62.1 1016.3 -9.9 -9.999 -99.9 -99.99 -9.99
2019/10/14 10:42 PDT    4.93   5.05    3  235    4  56.3  62.1 1016.2 -9.9 -9.999 -99.9 -99.99 -9.99
2019/10/14 10:48 PDT    5.03   5.16    2  228    4  56.7  62.1 1016.2 -9.9 -9.999 -99.9 -99.99 -9.99
2019/10/14 10:54 PDT    5.14   5.27    2  195    3  56.8  62.1 1016.1 -9.9 -9.999 -99.9 -99.99 -9.99
2019/10/14 11:00 PDT    5.24   5.38    2  213    3  56.8  62.1 1016.1 -9.9 -9.999 -99.9 -99.99 -9.99
2019/10/14 11:06 PDT    5.34   5.48    2  248    3  56.8  62.1 1016.1 -9.9 -9.999 -99.9 -99.99 -9.99
2019/10/14 11:12 PDT    5.43   5.57    2  231    3  56.8  62.1 1016.1 -9.9 -9.999 -99.9 -99.99 -9.99
2019/10/14 11:18 PDT    5.52   5.66    2  240    3  56.8  62.1 1016.1 -9.9 -9.999 -99.9 -99.99 -9.99
2019/10/14 11:24 PDT    5.61   5.73    3  247    4  56.8  62.1 1016.1 -9.9 -9.999 -99.9 -99.99 -9.99
2019/10/14 11:30 PDT    5.69   5.80    4  258    4  57.6  62.1 1016.1 -9.9 -9.999 -99.9 -99.99 -9.99
2019/10/14 11:36 PDT    5.77   5.90    3  252    4  57.9  62.1 1016.0 -9.9 -9.999 -99.9 -99.99 -9.99
2019/10/14 11:42 PDT    5.84   5.98    3  254    4  58.3  62.1 1016.1 -9.9 -9.999 -99.9 -99.99 -9.99
2019/10/14 11:48 PDT    5.91   6.06    3  258    4  58.3  61.9 1016.0 -9.9 -9.999 -99.9 -99.99 -9.99
2019/10/14 11:54 PDT    5.97   6.14    4  255    4  58.1  61.9 1016.0 -9.9 -9.999 -99.9 -99.99 -9.99
2019/10/14 12:00 PDT    6.03   6.21    5  270    6  58.1  61.9 1016.0 -9.9 -9.999 -99.9 -99.99 -9.99
2019/10/14 12:06 PDT    6.08   6.28    4  254    6  58.5  61.9 1015.9 -9.9 -9.999 -99.9 -99.99 -9.99
2019/10/14 12:12 PDT    6.13   6.33    3  256    6  59.5  62.1 1015.9 -9.9 -9.999 -99.9 -99.99 -9.99
2019/10/14 12:18 PDT    6.17   6.34    3  305    5  60.3  62.1 1015.9 -9.9 -9.999 -99.9 -99.99 -9.99
2019/10/14 12:24 PDT    6.20   6.39    4  334    7  60.3  62.1 1015.9 -9.9 -9.999 -99.9 -99.99 -9.99
2019/10/14 12:30 PDT    6.23   6.46    4  293    7  60.3  62.1 1015.8 -9.9 -9.999 -99.9 -99.99 -9.99
2019/10/14 12:36 PDT    6.26   6.49    3  317    5  60.6  62.2 1015.8 -9.9 -9.999 -99.9 -99.99 -9.99
2019/10/14 12:42 PDT    6.28   6.50    3  331    7  60.8  62.2 1015.8 -9.9 -9.999 -99.9 -99.99 -9.99
2019/10/14 12:48 PDT    6.29   6.52    4  324    6  60.8  62.2 1015.7 -9.9 -9.999 -99.9 -99.99 -9.99
2019/10/14 12:54 PDT    6.29   6.51    3  296    5  61.3  62.2 1015.6 -9.9 -9.999 -99.9 -99.99 -9.99
2019/10/14 13:00 PDT    6.29   6.50    3  293    5  61.7  62.2 1015.6 -9.9 -9.999 -99.9 -99.99 -9.99
2019/10/14 13:06 PDT    6.28   6.53    3  265    4  61.5  62.2 1015.5 -9.9 -9.999 -99.9 -99.99 -9.99
2019/10/14 13:12 PDT    6.26   6.53    4  275    6  61.2  62.2 1015.5 -9.9 -9.999 -99.9 -99.99 -9.99
2019/10/14 13:18 PDT    6.24   6.50    4  275    6  61.7  62.2 1015.5 -9.9 -9.999 -99.9 -99.99 -9.99
2019/10/14 13:24 PDT    6.21   6.44    5  275    6  61.9  62.2 1015.5 -9.9 -9.999 -99.9 -99.99 -9.99
2019/10/14 13:30 PDT    6.17   6.39    5  283    7  62.1  62.2 1015.5 -9.9 -9.999 -99.9 -99.99 -9.99
2019/10/14 13:36 PDT    6.13   6.35    5  277    6  62.2  62.4 1015.4 -9.9 -9.999 -99.9 -99.99 -9.99
2019/10/14 13:42 PDT    6.08   6.28    4  285    6  63.0  62.4 1015.4 -9.9 -9.999 -99.9 -99.99 -9.99
2019/10/14 13:48 PDT    6.02   6.18    4  304    8  63.0  62.4 1015.4 -9.9 -9.999 -99.9 -99.99 -9.99
2019/10/14 13:54 PDT    5.95   6.09    4  290    6  63.0  62.4 1015.3 -9.9 -9.999 -99.9 -99.99 -9.99
2019/10/14 14:00 PDT    5.88   6.00    4  284    6  62.8  62.4 1015.2 -9.9 -9.999 -99.9 -99.99 -9.99
2019/10/14 14:06 PDT    5.80   5.91    4  275    6  63.0  62.4 1015.1 -9.9 -9.999 -99.9 -99.99 -9.99
2019/10/14 14:12 PDT    5.72   5.80    4  274    6  62.4  62.4 1015.1 -9.9 -9.999 -99.9 -99.99 -9.99
2019/10/14 14:18 PDT    5.62   5.70    5  267    6  62.6  62.4 1015.0 -9.9 -9.999 -99.9 -99.99 -9.99
2019/10/14 14:24 PDT    5.53   5.56    5  279    7  62.4  62.4 1014.9 -9.9 -9.999 -99.9 -99.99 -9.99
2019/10/14 14:30 PDT    5.42   5.44    6  276    8  62.2  62.4 1014.9 -9.9 -9.999 -99.9 -99.99 -9.99
2019/10/14 14:36 PDT    5.31   5.32    6  276    7  62.6  62.4 1014.9 -9.9 -9.999 -99.9 -99.99 -9.99
2019/10/14 14:42 PDT    5.20   5.21    5  274    7  63.0  62.4 1014.8 -9.9 -9.999 -99.9 -99.99 -9.99
2019/10/14 14:48 PDT    5.08   5.07    4  271    6  63.0  62.4 1014.8 -9.9 -9.999 -99.9 -99.99 -9.99
2019/10/14 14:54 PDT    4.95   4.94    5  277    7  63.1  62.4 1014.9 -9.9 -9.999 -99.9 -99.99 -9.99
2019/10/14 15:00 PDT    4.82   4.81    6  280    8  63.0  62.4 1014.9 -9.9 -9.999 -99.9 -99.99 -9.99
2019/10/14 15:06 PDT    4.69   4.69    6  281    8  63.0  62.4 1014.9 -9.9 -9.999 -99.9 -99.99 -9.99
2019/10/14 15:12 PDT    4.56   4.55    7  279    8  62.8  62.4 1015.0 -9.9 -9.999 -99.9 -99.99 -9.99
2019/10/14 15:18 PDT    4.42   4.39    8  280    9  63.0  62.4 1015.0 -9.9 -9.999 -99.9 -99.99 -9.99
2019/10/14 15:24 PDT    4.28   4.22    8  281   10  62.4  62.4 1015.0 -9.9 -9.999 -99.9 -99.99 -9.99
2019/10/14 15:30 PDT    4.13   4.07    7  282   10  62.4  62.4 1015.0 -9.9 -9.999 -99.9 -99.99 -9.99
2019/10/14 15:36 PDT    3.99   3.93    8  279    9  62.2  62.4 1015.1 -9.9 -9.999 -99.9 -99.99 -9.99
2019/10/14 15:42 PDT    3.84   3.78    8  282   10  62.1  62.4 1015.1 -9.9 -9.999 -99.9 -99.99 -9.99
2019/10/14 15:48 PDT    3.69   3.61    8  283   11  61.9  62.4 1015.1 -9.9 -9.999 -99.9 -99.99 -9.99
2019/10/14 15:54 PDT    3.55   3.46    9  281   11  61.5  62.4 1015.2 -9.9 -9.999 -99.9 -99.99 -9.99
2019/10/14 16:00 PDT    3.40   3.32   10  284   11  61.3  62.4 1015.3 -9.9 -9.999 -99.9 -99.99 -9.99
2019/10/14 16:06 PDT    3.26   3.17   11  285   12  61.0  62.6 1015.3 -9.9 -9.999 -99.9 -99.99 -9.99
2019/10/14 16:12 PDT    3.11   3.04   10  285   12  61.0  62.6 1015.4 -9.9 -9.999 -99.9 -99.99 -9.99
2019/10/14 16:18 PDT    2.97   2.92   10  284   12  60.6  62.6 1015.4 -9.9 -9.999 -99.9 -99.99 -9.99
2019/10/14 16:24 PDT    2.83   2.77   11  283   14  60.1  62.6 1015.4 -9.9 -9.999 -99.9 -99.99 -9.99
2019/10/14 16:30 PDT    2.69   2.61    9  284   12  60.3  62.6 1015.4 -9.9 -9.999 -99.9 -99.99 -9.99
2019/10/14 16:36 PDT    2.55   2.46    8  282   10  60.4  62.8 1015.3 -9.9 -9.999 -99.9 -99.99 -9.99
2019/10/14 16:42 PDT    2.42   2.34    7  283   10  60.3  62.8 1015.3 -9.9 -9.999 -99.9 -99.99 -9.99
2019/10/14 16:48 PDT    2.29   2.23    7  284    9  60.4  62.8 1015.3 -9.9 -9.999 -99.9 -99.99 -9.99
2019/10/14 16:54 PDT    2.16   2.13    9  284   11  60.4  62.8 1015.3 -9.9 -9.999 -99.9 -99.99 -9.99
2019/10/14 17:00 PDT    2.04   2.03   10  282   13  60.1  62.8 1015.3 -9.9 -9.999 -99.9 -99.99 -9.99
2019/10/14 17:06 PDT    1.92   1.93    9  283   11  60.1  63.0 1015.3 -9.9 -9.999 -99.9 -99.99 -9.99
2019/10/14 17:12 PDT    1.80   1.81   11  282   12  59.7  63.0 1015.3 -9.9 -9.999 -99.9 -99.99 -9.99
2019/10/14 17:18 PDT    1.69   1.68   10  281   12  59.5  63.0 1015.2 -9.9 -9.999 -99.9 -99.99 -9.99
2019/10/14 17:24 PDT    1.59   1.56    8  282   11  59.9  63.0 1015.2 -9.9 -9.999 -99.9 -99.99 -9.99
2019/10/14 17:30 PDT    1.49   1.48    8  282   11  59.7  63.0 1015.2 -9.9 -9.999 -99.9 -99.99 -9.99
2019/10/14 17:36 PDT    1.39   1.41    6  284   10  59.9  63.0 1015.0 -9.9 -9.999 -99.9 -99.99 -9.99
2019/10/14 17:42 PDT    1.30   1.32    5  288    7  59.9  63.1 1015.0 -9.9 -9.999 -99.9 -99.99 -9.99
2019/10/14 17:48 PDT    1.21   1.24    4  285    6  59.9  63.1 1015.1 -9.9 -9.999 -99.9 -99.99 -9.99
2019/10/14 17:54 PDT    1.13   1.16    4  286    6  59.9  63.1 1015.1 -9.9 -9.999 -99.9 -99.99 -9.99
2019/10/14 18:00 PDT    1.06   1.04    4  286    6  60.3  63.1 1015.1 -9.9 -9.999 -99.9 -99.99 -9.99
2019/10/14 18:06 PDT    0.99   0.97    6  283    7  60.1  63.1 1015.1 -9.9 -9.999 -99.9 -99.99 -9.99
2019/10/14 18:12 PDT    0.92   0.92    5  281    7  59.9  63.1 1015.1 -9.9 -9.999 -99.9 -99.99 -9.99
2019/10/14 18:18 PDT    0.87   0.90    4  283    6  60.1  63.3 1015.1 -9.9 -9.999 -99.9 -99.99 -9.99
2019/10/14 18:24 PDT    0.81   0.88    5  258    5  60.1  63.3 1015.4 -9.9 -9.999 -99.9 -99.99 -9.99
2019/10/14 18:30 PDT    0.76   0.89    9  281   13  59.7  63.3 1015.8 -9.9 -9.999 -99.9 -99.99 -9.99
2019/10/14 18:36 PDT    0.72   0.81    9  284   12  59.0  63.3 1015.6 -9.9 -9.999 -99.9 -99.99 -9.99
2019/10/14 18:42 PDT    0.69   0.70    5  285    9  58.5  63.3 1015.4 -9.9 -9.999 -99.9 -99.99 -9.99
2019/10/14 18:48 PDT    0.66   0.66    6  285    7  58.6  63.3 1015.6 -9.9 -9.999 -99.9 -99.99 -9.99
2019/10/14 18:54 PDT    0.63   0.69    5  288    8  58.3  63.3 1015.7 -9.9 -9.999 -99.9 -99.99 -9.99
2019/10/14 19:00 PDT    0.62   0.69    5  289    6  58.3  63.3 1015.8 -9.9 -9.999 -99.9 -99.99 -9.99
2019/10/14 19:06 PDT    0.60   0.69    7  280    9  58.1  63.3 1015.8 -9.9 -9.999 -99.9 -99.99 -9.99
2019/10/14 19:12 PDT    0.60   0.70    6  278    8  57.6  63.3 1015.9 -9.9 -9.999 -99.9 -99.99 -9.99
2019/10/14 19:18 PDT    0.60   0.71    6  284   12  57.2  63.3 1016.1 -9.9 -9.999 -99.9 -99.99 -9.99
2019/10/14 19:24 PDT    0.60   0.65    4  299   13  56.8  63.3 1016.0 -9.9 -9.999 -99.9 -99.99 -9.99
2019/10/14 19:30 PDT    0.61   0.62    6  282   12  56.8  63.3 1016.1 -9.9 -9.999 -99.9 -99.99 -9.99
2019/10/14 19:36 PDT    0.63   0.63    4  292   10  56.8  63.3 1015.9 -9.9 -9.999 -99.9 -99.99 -9.99
2019/10/14 19:42 PDT    0.66   0.70    6  286    8  56.7  63.3 1016.3 -9.9 -9.999 -99.9 -99.99 -9.99
2019/10/14 19:48 PDT    0.69   0.76    4  286    7  56.8  63.3 1016.1 -9.9 -9.999 -99.9 -99.99 -9.99
2019/10/14 19:54 PDT    0.72   0.82    7  284   10  56.3  63.3 1016.3 -9.9 -9.999 -99.9 -99.99 -9.99
2019/10/14 20:00 PDT    0.76   0.83    6  286    8  56.5  63.3 1016.3 -9.9 -9.999 -99.9 -99.99 -9.99
2019/10/14 20:06 PDT    0.81   0.87    7  283    9  56.3  63.3 1016.4 -9.9 -9.999 -99.9 -99.99 -9.99
2019/10/14 20:12 PDT    0.86   0.93    6  282    8  55.9  63.3 1016.3 -9.9 -9.999 -99.9 -99.99 -9.99
2019/10/14 20:18 PDT    0.92   1.00    7  285    9  55.8  63.3 1016.4 -9.9 -9.999 -99.9 -99.99 -9.99
2019/10/14 20:24 PDT    0.99   1.10    7  283    9  55.6  63.3 1016.5 -9.9 -9.999 -99.9 -99.99 -9.99
2019/10/14 20:30 PDT    1.06   1.21    8  284   10  55.8  63.3 1016.6 -9.9 -9.999 -99.9 -99.99 -9.99
2019/10/14 20:36 PDT    1.13   1.29    7  283   10  55.6  63.3 1016.5 -9.9 -9.999 -99.9 -99.99 -9.99
2019/10/14 20:42 PDT    1.21   1.36    8  281   11  55.6  63.3 1016.7 -9.9 -9.999 -99.9 -99.99 -9.99
2019/10/14 20:48 PDT    1.29   1.44    7  284    9  55.6  63.3 1016.7 -9.9 -9.999 -99.9 -99.99 -9.99
2019/10/14 20:54 PDT    1.38   1.53    8  280   10  55.2  63.3 1016.7 -9.9 -9.999 -99.9 -99.99 -9.99
2019/10/14 21:00 PDT    1.48   1.62    8  281   10  54.9  63.3 1016.9 -9.9 -9.999 -99.9 -99.99 -9.99
2019/10/14 21:06 PDT    1.57   1.72    7  287   10  55.0  63.3 1016.9 -9.9 -9.999 -99.9 -99.99 -9.99
2019/10/14 21:12 PDT    1.67   1.84    6  282   10  54.7  63.3 1017.0 -9.9 -9.999 -99.9 -99.99 -9.99
2019/10/14 21:18 PDT    1.78   1.96    6  284    8  54.7  63.3 1017.0 -9.9 -9.999 -99.9 -99.99 -9.99
2019/10/14 21:24 PDT    1.88   2.08    5  285    7  54.5  63.3 1017.0 -9.9 -9.999 -99.9 -99.99 -9.99
2019/10/14 21:30 PDT    1.99   2.18    3  288    7  54.7  63.3 1016.9 -9.9 -9.999 -99.9 -99.99 -9.99
2019/10/14 21:36 PDT    2.10   2.28    4  287    5  54.7  63.3 1017.1 -9.9 -9.999 -99.9 -99.99 -9.99
2019/10/14 21:42 PDT    2.22   2.41    4  286    5  54.9  63.3 1017.1 -9.9 -9.999 -99.9 -99.99 -9.99
2019/10/14 21:48 PDT    2.33   2.54    5  293    7  54.9  63.3 1017.0 -9.9 -9.999 -99.9 -99.99 -9.99
2019/10/14 21:54 PDT    2.45   2.66    7  285    8  54.9  63.3 1017.2 -9.9 -9.999 -99.9 -99.99 -9.99
2019/10/14 22:00 PDT    2.57   2.76    8  284   11  54.3  63.1 1017.3 -9.9 -9.999 -99.9 -99.99 -9.99
2019/10/14 22:06 PDT    2.69   2.87    6  286   11  54.3  63.1 1017.4 -9.9 -9.999 -99.9 -99.99 -9.99
2019/10/14 22:12 PDT    2.81   3.00    8  285   10  54.0  63.1 1017.6 -9.9 -9.999 -99.9 -99.99 -9.99
2019/10/14 22:18 PDT    2.93   3.12    7  284   10  54.1  63.1 1017.6 -9.9 -9.999 -99.9 -99.99 -9.99
2019/10/14 22:24 PDT    3.05   3.22    6  287    8  54.1  63.1 1017.6 -9.9 -9.999 -99.9 -99.99 -9.99
2019/10/14 22:30 PDT    3.17   3.34    6  286    7  54.0  63.1 1017.7 -9.9 -9.999 -99.9 -99.99 -9.99
2019/10/14 22:36 PDT    3.29   3.44    5  280    8  54.0  63.1 1017.6 -9.9 -9.999 -99.9 -99.99 -9.99
2019/10/14 22:42 PDT    3.41   3.57    5  281    7  54.1  63.0 1017.7 -9.9 -9.999 -99.9 -99.99 -9.99
2019/10/14 22:48 PDT    3.53   3.68    4  287    7  54.5  63.0 1017.6 -9.9 -9.999 -99.9 -99.99 -9.99
2019/10/14 22:54 PDT    3.64   3.81    3  296    5  54.1  63.0 1017.6 -9.9 -9.999 -99.9 -99.99 -9.99
2019/10/14 23:00 PDT    3.76   3.90    3  278    4  54.0  63.0 1017.5 -9.9 -9.999 -99.9 -99.99 -9.99
2019/10/14 23:06 PDT    3.87   4.02    4  279    6  54.0  63.0 1017.6 -9.9 -9.999 -99.9 -99.99 -9.99
2019/10/14 23:12 PDT    3.98   4.12    4  279    5  53.6  63.0 1017.5 -9.9 -9.999 -99.9 -99.99 -9.99
2019/10/14 23:18 PDT    4.09   4.24    4  283    5  53.8  63.0 1017.5 -9.9 -9.999 -99.9 -99.99 -9.99
2019/10/14 23:24 PDT    4.19   4.34    4  287    4  53.8  63.0 1017.5 -9.9 -9.999 -99.9 -99.99 -9.99
2019/10/14 23:30 PDT    4.30   4.44    2  285    4  53.8  63.0 1017.4 -9.9 -9.999 -99.9 -99.99 -9.99
2019/10/14 23:36 PDT    4.40   4.56    3  286    4  53.8  63.0 1017.4 -9.9 -9.999 -99.9 -99.99 -9.99
2019/10/14 23:42 PDT    4.50   4.66    4  285    5  53.8  63.0 1017.6 -9.9 -9.999 -99.9 -99.99 -9.99
2019/10/14 23:48 PDT    4.59   4.73    4  282    5  54.1  63.0 1017.6 -9.9 -9.999 -99.9 -99.99 -9.99
2019/10/14 23:54 PDT    4.68   4.82    4  283    5  54.0  63.0 1017.6 -9.9 -9.999 -99.9 -99.99 -9.99
2019/10/15 00:00 PDT    4.77   4.92    4  284    5  53.8  63.0 1017.6 -9.9 -9.999 -99.9 -99.99 -9.99
2019/10/15 00:06 PDT    4.85   5.00    3  287    4  54.0  63.0 1017.6 -9.9 -9.999 -99.9 -99.99 -9.99
2019/10/15 00:12 PDT    4.93   5.05    2  286    4  53.8  63.0 1017.6 -9.9 -9.999 -99.9 -99.99 -9.99
2019/10/15 00:18 PDT    5.01   5.13    3  290    4  54.0  62.8 1017.5 -9.9 -9.999 -99.9 -99.99 -9.99
2019/10/15 00:24 PDT    5.08   5.22    3  282    4  53.8  62.8 1017.6 -9.9 -9.999 -99.9 -99.99 -9.99
2019/10/15 00:30 PDT    5.15   5.28    1  310    3  54.0  62.8 1017.5 -9.9 -9.999 -99.9 -99.99 -9.99
2019/10/15 00:36 PDT    5.21   5.35    1   54    2  54.1  62.8 1017.4 -9.9 -9.999 -99.9 -99.99 -9.99
2019/10/15 00:42 PDT    5.27   5.42    0  103    2  54.0  62.8 1017.5 -9.9 -9.999 -99.9 -99.99 -9.99
2019/10/15 00:48 PDT    5.32   5.49    1  354    2  53.8  62.8 1017.6 -9.9 -9.999 -99.9 -99.99 -9.99
2019/10/15 00:54 PDT    5.37   5.54    0   78    2  54.0  62.8 1017.6 -9.9 -9.999 -99.9 -99.99 -9.99
2019/10/15 01:00 PDT    5.42   5.57    0   88    2  54.1  62.8 1017.6 -9.9 -9.999 -99.9 -99.99 -9.99
2019/10/15 01:06 PDT    5.45   5.65    0   88    2  53.8  62.8 1017.6 -9.9 -9.999 -99.9 -99.99 -9.99
2019/10/15 01:12 PDT    5.49   5.68    1  124    1  53.8  62.8 1017.6 -9.9 -9.999 -99.9 -99.99 -9.99
2019/10/15 01:18 PDT    5.51   5.69    0   45    1  54.0  62.8 1017.6 -9.9 -9.999 -99.9 -99.99 -9.99
2019/10/15 01:24 PDT    5.54   5.70    0   32    1  54.0  62.6 1017.7 -9.9 -9.999 -99.9 -99.99 -9.99
2019/10/15 01:30 PDT    5.55   5.75    0   22    1  53.8  62.6 1017.7 -9.9 -9.999 -99.9 -99.99 -9.99
2019/10/15 01:36 PDT    5.56   5.76    1  106    2  53.8  62.6 1017.6 -9.9 -9.999 -99.9 -99.99 -9.99
2019/10/15 01:42 PDT    5.56   5.75    1   82    2  53.6  62.6 1017.6 -9.9 -9.999 -99.9 -99.99 -9.99
2019/10/15 01:48 PDT    5.56   5.73    2  358    2  53.6  62.6 1017.7 -9.9 -9.999 -99.9 -99.99 -9.99
2019/10/15 01:54 PDT    5.55   5.72    0   47    1  53.8  62.6 1017.8 -9.9 -9.999 -99.9 -99.99 -9.99
2019/10/15 02:00 PDT    5.54   5.69    0   58    1  53.8  62.6 1017.8 -9.9 -9.999 -99.9 -99.99 -9.99
2019/10/15 02:06 PDT    5.51   5.67    1  114    1  53.6  62.6 1017.8 -9.9 -9.999 -99.9 -99.99 -9.99
2019/10/15 02:12 PDT    5.49   5.65    1   99    2  53.2  62.6 1017.9 -9.9 -9.999 -99.9 -99.99 -9.99
2019/10/15 02:18 PDT    5.45   5.59    0  105    1  53.4  62.6 1017.9 -9.9 -9.999 -99.9 -99.99 -9.99
2019/10/15 02:24 PDT    5.41   5.55    0   86    1  53.6  62.6 1017.8 -9.9 -9.999 -99.9 -99.99 -9.99
2019/10/15 02:30 PDT    5.36   5.50    1   66    1  53.8  62.6 1017.9 -9.9 -9.999 -99.9 -99.99 -9.99
2019/10/15 02:36 PDT    5.31   5.44    0  349    1  53.4  62.6 1017.9 -9.9 -9.999 -99.9 -99.99 -9.99
2019/10/15 02:42 PDT    5.25   5.41    1  333    1  53.4  62.6 1017.8 -9.9 -9.999 -99.9 -99.99 -9.99
2019/10/15 02:48 PDT    5.19   5.32    2  294    3  53.4  62.6 1017.9 -9.9 -9.999 -99.9 -99.99 -9.99
2019/10/15 02:54 PDT    5.12   5.20    2  282    4  53.4  62.6 1017.9 -9.9 -9.999 -99.9 -99.99 -9.99
2019/10/15 03:00 PDT    5.05   5.10    3  295    4  53.2  62.6 1017.9 -9.9 -9.999 -99.9 -99.99 -9.99
2019/10/15 03:06 PDT    4.97   5.04    4  282    4  53.4  62.6 1017.9 -9.9 -9.999 -99.9 -99.99 -9.99
2019/10/15 03:12 PDT    4.88   4.96    4  287    5  53.2  62.6 1018.0 -9.9 -9.999 -99.9 -99.99 -9.99
2019/10/15 03:18 PDT    4.79   4.86    4  287    5  53.1  62.6 1017.9 -9.9 -9.999 -99.9 -99.99 -9.99
2019/10/15 03:24 PDT    4.70   4.77    4  285    4  53.1  62.6 1017.9 -9.9 -9.999 -99.9 -99.99 -9.99
2019/10/15 03:30 PDT    4.60   4.68    3  293    5  52.7  62.6 1017.9 -9.9 -9.999 -99.9 -99.99 -9.99
2019/10/15 03:36 PDT    4.50   4.56    4  286    5  52.7  62.6 1017.9 -9.9 -9.999 -99.9 -99.99 -9.99
2019/10/15 03:42 PDT    4.40   4.41    4  284    5  52.7  62.6 1017.9 -9.9 -9.999 -99.9 -99.99 -9.99
2019/10/15 03:48 PDT    4.30   4.30    4  290    5  52.7  62.6 1017.9 -9.9 -9.999 -99.9 -99.99 -9.99
2019/10/15 03:54 PDT    4.19   4.20    2  307    5  52.5  62.6 1017.8 -9.9 -9.999 -99.9 -99.99 -9.99
2019/10/15 04:00 PDT    4.08   4.09    3  326    4  52.5  62.6 1017.8 -9.9 -9.999 -99.9 -99.99 -9.99
2019/10/15 04:06 PDT    3.97   3.97    2  308    4  52.7  62.6 1017.8 -9.9 -9.999 -99.9 -99.99 -9.99
2019/10/15 04:12 PDT    3.86   3.82    2  302    4  52.5  62.6 1017.9 -9.9 -9.999 -99.9 -99.99 -9.99
2019/10/15 04:18 PDT    3.75   3.68    2  310    4  52.5  62.6 1018.0 -9.9 -9.999 -99.9 -99.99 -9.99
2019/10/15 04:24 PDT    3.64   3.57    2  328    4  52.3  62.6 1018.0 -9.9 -9.999 -99.9 -99.99 -9.99
2019/10/15 04:30 PDT    3.53   3.45    2   13    4  52.7  62.6 1017.9 -9.9 -9.999 -99.9 -99.99 -9.99
2019/10/15 04:36 PDT    3.43   3.32    1    9    3  52.5  62.6 1018.0 -9.9 -9.999 -99.9 -99.99 -9.99
2019/10/15 04:42 PDT    3.32   3.22    4  354    5  52.5  62.6 1018.1 -9.9 -9.999 -99.9 -99.99 -9.99
2019/10/15 04:48 PDT    3.21   3.14    3   18    5  52.5  62.6 1018.0 -9.9 -9.999 -99.9 -99.99 -9.99
2019/10/15 04:54 PDT    3.11   3.05    2   19    4  52.5  62.6 1018.0 -9.9 -9.999 -99.9 -99.99 -9.99
2019/10/15 05:00 PDT    3.01   2.94    2    2    4  52.3  62.6 1018.1 -9.9 -9.999 -99.9 -99.99 -9.99
2019/10/15 05:06 PDT    2.91   2.83    1   21    3  52.3  62.6 1018.0 -9.9 -9.999 -99.9 -99.99 -9.99
2019/10/15 05:12 PDT    2.81   2.75    2  287    3  52.2  62.6 1018.1 -9.9 -9.999 -99.9 -99.99 -9.99
2019/10/15 05:18 PDT    2.72   2.65    2  360    3  52.5  62.4 1018.2 -9.9 -9.999 -99.9 -99.99 -9.99
2019/10/15 05:24 PDT    2.63   2.55    2  344    3  52.2  62.4 1018.2 -9.9 -9.999 -99.9 -99.99 -9.99
2019/10/15 05:30 PDT    2.55   2.48    1  341    3  52.2  62.4 1018.2 -9.9 -9.999 -99.9 -99.99 -9.99
2019/10/15 05:36 PDT    2.47   2.43    0  311    2  52.3  62.4 1018.3 -9.9 -9.999 -99.9 -99.99 -9.99
2019/10/15 05:42 PDT    2.39   2.32    1   19    2  52.5  62.4 1018.3 -9.9 -9.999 -99.9 -99.99 -9.99
2019/10/15 05:48 PDT    2.32   2.20    1  105    2  52.3  62.4 1018.4 -9.9 -9.999 -99.9 -99.99 -9.99
2019/10/15 05:54 PDT    2.25   2.10    1  310    2  52.3  62.4 1018.4 -9.9 -9.999 -99.9 -99.99 -9.99
2019/10/15 06:00 PDT    2.18   2.05    3    6    4  52.7  62.4 1018.5 -9.9 -9.999 -99.9 -99.99 -9.99
2019/10/15 06:06 PDT    2.12   1.98    2  303    4  52.5  62.4 1018.7 -9.9 -9.999 -99.9 -99.99 -9.99
2019/10/15 06:12 PDT    2.07   1.93    4  350    5  52.2  62.4 1018.7 -9.9 -9.999 -99.9 -99.99 -9.99
2019/10/15 06:18 PDT    2.02   1.90    3  348    5  52.3  62.4 1018.8 -9.9 -9.999 -99.9 -99.99 -9.99
2019/10/15 06:24 PDT    1.98   1.89    2   30    4  52.9  62.4 1018.9 -9.9 -9.999 -99.9 -99.99 -9.99
2019/10/15 06:30 PDT    1.94   1.85    3  328    4  52.3  62.4 1018.9 -9.9 -9.999 -99.9 -99.99 -9.99
2019/10/15 06:36 PDT    1.90   1.81    2  346    5  52.5  62.4 1018.9 -9.9 -9.999 -99.9 -99.99 -9.99
2019/10/15 06:42 PDT    1.87   1.78    3  340    4  52.5  62.4 1019.0 -9.9 -9.999 -99.9 -99.99 -9.99
2019/10/15 06:48 PDT    1.85   1.76    3  348    5  52.3  62.4 1019.0 -9.9 -9.999 -99.9 -99.99 -9.99
2019/10/15 06:54 PDT    1.83   1.76    2  339    4  52.3  62.4 1019.1 -9.9 -9.999 -99.9 -99.99 -9.99
2019/10/15 07:00 PDT    1.81   1.76    4  278    4  52.3  62.2 1019.2 -9.9 -9.999 -99.9 -99.99 -9.99
2019/10/15 07:06 PDT    1.81   1.76    4  289    5  52.5  62.2 1019.3 -9.9 -9.999 -99.9 -99.99 -9.99
2019/10/15 07:12 PDT    1.80   1.75    3  279    5  52.3  62.2 1019.5 -9.9 -9.999 -99.9 -99.99 -9.99
2019/10/15 07:18 PDT    1.80   1.75    5  280    6  52.2  62.2 1019.5 -9.9 -9.999 -99.9 -99.99 -9.99
2019/10/15 07:24 PDT    1.81   1.76    4  254    6  52.3  62.2 1019.5 -9.9 -9.999 -99.9 -99.99 -9.99
2019/10/15 07:30 PDT    1.82   1.76    5  283    6  52.0  62.1 1019.6 -9.9 -9.999 -99.9 -99.99 -9.99
2019/10/15 07:36 PDT    1.84   1.77    4  272    5  52.0  62.1 1019.5 -9.9 -9.999 -99.9 -99.99 -9.99
2019/10/15 07:42 PDT    1.87   1.80    4  275    6  51.6  62.1 1019.5 -9.9 -9.999 -99.9 -99.99 -9.99
2019/10/15 07:48 PDT    1.90   1.83    5  279    6  51.4  62.1 1019.5 -9.9 -9.999 -99.9 -99.99 -9.99
2019/10/15 07:54 PDT    1.93   1.86    3  285    6  51.6  62.1 1019.5 -9.9 -9.999 -99.9 -99.99 -9.99
2019/10/15 08:00 PDT    1.97   1.88    4  278    7  51.6  62.1 1019.6 -9.9 -9.999 -99.9 -99.99 -9.99
2019/10/15 08:06 PDT    2.02   1.94    2  261    4  51.8  62.1 1019.7 -9.9 -9.999 -99.9 -99.99 -9.99
2019/10/15 08:12 PDT    2.07   2.01    2  291    4  51.8  62.1 1019.8 -9.9 -9.999 -99.9 -99.99 -9.99
2019/10/15 08:18 PDT    2.13   2.10    2  203    4  51.8  61.9 1019.9 -9.9 -9.999 -99.9 -99.99 -9.99
2019/10/15 08:24 PDT    2.19   2.18    4  280    5  52.0  61.9 1020.0 -9.9 -9.999 -99.9 -99.99 -9.99
2019/10/15 08:30 PDT    2.25   2.27    3  278    5  51.8  61.9 1020.0 -9.9 -9.999 -99.9 -99.99 -9.99
2019/10/15 08:36 PDT    2.33   2.35    3  289    4  51.8  61.9 1020.0 -9.9 -9.999 -99.9 -99.99 -9.99
2019/10/15 08:42 PDT    2.40   2.42    4  292    4  51.8  61.9 1020.1 -9.9 -9.999 -99.9 -99.99 -9.99
2019/10/15 08:48 PDT    2.48   2.50    1  146    3  52.0  61.9 1020.1 -9.9 -9.999 -99.9 -99.99 -9.99
2019/10/15 08:54 PDT    2.57   2.60    1  288    3  52.0  61.9 1020.1 -9.9 -9.999 -99.9 -99.99 -9.99
2019/10/15 09:00 PDT    2.66   2.73    1  251    2  52.2  61.9 1020.2 -9.9 -9.999 -99.9 -99.99 -9.99
2019/10/15 09:06 PDT    2.75   2.85    2  305    4  52.3  61.9 1020.3 -9.9 -9.999 -99.9 -99.99 -9.99
2019/10/15 09:12 PDT    2.85   2.93    2  306    5  52.2  61.9 1020.4 -9.9 -9.999 -99.9 -99.99 -9.99
2019/10/15 09:18 PDT    2.95   2.98    2  347    4  52.3  61.9 1020.5 -9.9 -9.999 -99.9 -99.99 -9.99
2019/10/15 09:24 PDT    3.06   3.08    1    2    3  52.5  61.9 1020.5 -9.9 -9.999 -99.9 -99.99 -9.99
2019/10/15 09:30 PDT    3.17   3.21    2  235    4  52.3  61.9 1020.5 -9.9 -9.999 -99.9 -99.99 -9.99
2019/10/15 09:36 PDT    3.28   3.33 -999 -999 -999 -99.9 -99.9 -999.9 -9.9 -9.999 -99.9 -99.99 -9.99
2019/10/15 09:42 PDT    3.39   3.43    1  262    2  52.3  61.7 1020.6 -9.9 -9.999 -99.9 -99.99 -9.99
2019/10/15 09:48 PDT    3.51   3.54    3  253    3  52.3  61.7 1020.7 -9.9 -9.999 -99.9 -99.99 -9.99
2019/10/15 09:54 PDT    3.62   3.65    4  258    5  52.2  61.7 1020.7 -9.9 -9.999 -99.9 -99.99 -9.99
2019/10/15 10:00 PDT    3.74   3.77    2  237    6  52.5  61.7 1020.7 -9.9 -9.999 -99.9 -99.99 -9.99
2019/10/15 10:06 PDT    3.86   3.91    4  238    6  52.3  61.7 1020.7 -9.9 -9.999 -99.9 -99.99 -9.99
2019/10/15 10:12 PDT    3.98   4.04    4  250    5  52.2  61.7 1020.7 -9.9 -9.999 -99.9 -99.99 -9.99
2019/10/15 10:18 PDT    4.10   4.13    2  236    4  52.5  61.7 1020.8 -9.9 -9.999 -99.9 -99.99 -9.99
2019/10/15 10:24 PDT    4.22   4.21    3  242    4  52.3  61.7 1020.8 -9.9 -9.999 -99.9 -99.99 -9.99
2019/10/15 10:30 PDT    4.34   4.33    2  239    4  52.5  61.7 1020.8 -9.9 -9.999 -99.9 -99.99 -9.99
2019/10/15 10:36 PDT    4.46   4.49    2  279    3  52.3  61.7 1020.7 -9.9 -9.999 -99.9 -99.99 -9.99
2019/10/15 10:42 PDT    4.57   4.63    2  259    4  52.2  61.7 1020.7 -9.9 -9.999 -99.9 -99.99 -9.99
2019/10/15 10:48 PDT    4.69   4.73    4  246    4  52.3  61.7 1020.8 -9.9 -9.999 -99.9 -99.99 -9.99
2019/10/15 10:54 PDT    4.81   4.78    4  232    6  52.3  61.7 1020.8 -9.9 -9.999 -99.9 -99.99 -9.99
2019/10/15 11:00 PDT    4.92   4.84    5  255    6  52.3  61.7 1020.9 -9.9 -9.999 -99.9 -99.99 -9.99
2019/10/15 11:06 PDT    5.03   4.95    2  274    6  52.0  61.7 1021.0 -9.9 -9.999 -99.9 -99.99 -9.99
2019/10/15 11:12 PDT    5.13   5.10    3  272    4  52.2  61.7 1021.0 -9.9 -9.999 -99.9 -99.99 -9.99
2019/10/15 11:18 PDT    5.24   5.22    2  214    3  52.3  61.7 1021.0 -9.9 -9.999 -99.9 -99.99 -9.99
2019/10/15 11:24 PDT    5.34   5.29    1  343    3  53.1  61.7 1021.0 -9.9 -9.999 -99.9 -99.99 -9.99
2019/10/15 11:30 PDT    5.44   5.36    1  297    4  53.2  61.7 1021.0 -9.9 -9.999 -99.9 -99.99 -9.99
2019/10/15 11:36 PDT    5.53   5.43    4  282    6  53.1  61.7 1021.0 -9.9 -9.999 -99.9 -99.99 -9.99
2019/10/15 11:42 PDT    5.62   5.52    2  307    6  53.6  61.7 1020.9 -9.9 -9.999 -99.9 -99.99 -9.99
2019/10/15 11:48 PDT    5.70   5.63    2  319    3  54.1  61.7 1020.8 -9.9 -9.999 -99.9 -99.99 -9.99
2019/10/15 11:54 PDT    5.79   5.72    3  336    7  53.8  61.7 1020.6 -9.9 -9.999 -99.9 -99.99 -9.99
2019/10/15 12:00 PDT    5.86   5.81    1  174    3  54.1  61.7 1020.6 -9.9 -9.999 -99.9 -99.99 -9.99
2019/10/15 12:06 PDT    5.93   5.89    4  258    4  54.0  61.7 1020.6 -9.9 -9.999 -99.9 -99.99 -9.99
2019/10/15 12:12 PDT    6.00   5.96    6  265    7  54.1  61.7 1020.5 -9.9 -9.999 -99.9 -99.99 -9.99
2019/10/15 12:18 PDT    6.06   6.04    6  282    7  53.8  61.7 1020.4 -9.9 -9.999 -99.9 -99.99 -9.99
2019/10/15 12:24 PDT    6.12   6.12    5  267    7  54.0  61.7 1020.4 -9.9 -9.999 -99.9 -99.99 -9.99
2019/10/15 12:30 PDT    6.17   6.16    6  273    8  54.0  61.7 1020.4 -9.9 -9.999 -99.9 -99.99 -9.99
2019/10/15 12:36 PDT    6.22   6.20    6  265    8  54.1  61.7 1020.4 -9.9 -9.999 -99.9 -99.99 -9.99
2019/10/15 12:42 PDT    6.26   6.24    5  280    7  54.0  61.7 1020.4 -9.9 -9.999 -99.9 -99.99 -9.99
2019/10/15 12:48 PDT    6.29   6.28    5  277    7  54.0  61.7 1020.3 -9.9 -9.999 -99.9 -99.99 -9.99
2019/10/15 12:54 PDT    6.32   6.31    4  274    7  54.5  61.7 1020.2 -9.9 -9.999 -99.9 -99.99 -9.99
2019/10/15 13:00 PDT    6.35   6.34    3  270    6  55.2  61.7 1020.0 -9.9 -9.999 -99.9 -99.99 -9.99
2019/10/15 13:06 PDT    6.36   6.37    4  275    5  55.8  61.7 1019.9 -9.9 -9.999 -99.9 -99.99 -9.99
2019/10/15 13:12 PDT    6.37   6.39    3  309    5  56.7  61.7 1019.8 -9.9 -9.999 -99.9 -99.99 -9.99
2019/10/15 13:18 PDT    6.38   6.37    3  299    5  56.8  61.7 1019.6 -9.9 -9.999 -99.9 -99.99 -9.99
2019/10/15 13:24 PDT    6.38   6.34    2  301    5  57.4  61.7 1019.4 -9.9 -9.999 -99.9 -99.99 -9.99
2019/10/15 13:30 PDT    6.37   6.34    4  274    5  56.8  61.7 1019.3 -9.9 -9.999 -99.9 -99.99 -9.99
2019/10/15 13:36 PDT    6.35   6.35    3  281    5  57.6  61.7 1019.2 -9.9 -9.999 -99.9 -99.99 -9.99
2019/10/15 13:42 PDT    6.33   6.33    4  270    6  57.4  61.9 1019.1 -9.9 -9.999 -99.9 -99.99 -9.99
2019/10/15 13:48 PDT    6.30   6.27    4  277    5  57.4  61.9 1018.9 -9.9 -9.999 -99.9 -99.99 -9.99
2019/10/15 13:54 PDT    6.27   6.23    3  269    4  57.7  61.9 1018.8 -9.9 -9.999 -99.9 -99.99 -9.99
2019/10/15 14:00 PDT    6.23   6.19    2  248    4  58.1  61.9 1018.6 -9.9 -9.999 -99.9 -99.99 -9.99
2019/10/15 14:06 PDT    6.18   6.13    5  274    6  58.3  61.9 1018.6 -9.9 -9.999 -99.9 -99.99 -9.99
2019/10/15 14:12 PDT    6.12   6.06    5  275    6  58.1  61.9 1018.4 -9.9 -9.999 -99.9 -99.99 -9.99
2019/10/15 14:18 PDT    6.06   5.99    5  262    7  57.9  61.9 1018.3 -9.9 -9.999 -99.9 -99.99 -9.99
2019/10/15 14:24 PDT    5.99   5.90    5  273    7  58.8  61.9 1018.1 -9.9 -9.999 -99.9 -99.99 -9.99
2019/10/15 14:30 PDT    5.92   5.82    5  271    7  59.2  61.9 1018.0 -9.9 -9.999 -99.9 -99.99 -9.99
2019/10/15 14:36 PDT    5.83   5.72    5  272    7  60.3  61.9 1018.1 -9.9 -9.999 -99.9 -99.99 -9.99
2019/10/15 14:42 PDT    5.75   5.62    6  276    8  60.1  61.9 1018.0 -9.9 -9.999 -99.9 -99.99 -9.99
2019/10/15 14:48 PDT    5.65   5.49    6  277    8  60.8  61.9 1017.9 -9.9 -9.999 -99.9 -99.99 -9.99
2019/10/15 14:54 PDT    5.55   5.37    5  282    7  60.8  61.9 1018.0 -9.9 -9.999 -99.9 -99.99 -9.99
2019/10/15 15:00 PDT    5.44   5.24    4  291    7  61.7  61.9 1017.8 -9.9 -9.999 -99.9 -99.99 -9.99
2019/10/15 15:06 PDT    5.33   5.12    4  309    6  61.3  61.9 1017.7 -9.9 -9.999 -99.9 -99.99 -9.99
2019/10/15 15:12 PDT    5.21   4.99    3  313    4  61.9  61.9 1017.6 -9.9 -9.999 -99.9 -99.99 -9.99
2019/10/15 15:18 PDT    5.09   4.85    2  298    4  62.8  62.1 1017.7 -9.9 -9.999 -99.9 -99.99 -9.99
2019/10/15 15:24 PDT    4.96   4.69    3  281    4  62.6  62.1 1017.6 -9.9 -9.999 -99.9 -99.99 -9.99
2019/10/15 15:30 PDT    4.83   4.56    2  316    4  64.0  62.1 1017.5 -9.9 -9.999 -99.9 -99.99 -9.99
2019/10/15 15:36 PDT    4.69   4.44    1    2    3  64.6  62.1 1017.3 -9.9 -9.999 -99.9 -99.99 -9.99
2019/10/15 15:42 PDT    4.55   4.29    3  263    4  63.3  62.1 1017.3 -9.9 -9.999 -99.9 -99.99 -9.99
2019/10/15 15:48 PDT    4.41   4.11    4  260    4  62.4  62.1 1017.4 -9.9 -9.999 -99.9 -99.99 -9.99
2019/10/15 15:54 PDT    4.26   3.93    3  265    4  63.0  62.1 1017.3 -9.9 -9.999 -99.9 -99.99 -9.99
2019/10/15 16:00 PDT    4.12   3.79    3  254    4  62.2  62.1 1017.2 -9.9 -9.999 -99.9 -99.99 -9.99
2019/10/15 16:06 PDT    3.97   3.66    3  258    4  63.1  62.1 1017.2 -9.9 -9.999 -99.9 -99.99 -9.99
2019/10/15 16:12 PDT    3.81   3.52    4  268    5  64.9  62.1 1017.1 -9.9 -9.999 -99.9 -99.99 -9.99
2019/10/15 16:18 PDT    3.66   3.37    4  256    4  64.4  62.1 1017.0 -9.9 -9.999 -99.9 -99.99 -9.99
2019/10/15 16:24 PDT    3.51   3.22    3  259    4  64.4  62.1 1017.0 -9.9 -9.999 -99.9 -99.99 -9.99
2019/10/15 16:30 PDT    3.36   3.04    4  274    4  64.4  62.1 1016.9 -9.9 -9.999 -99.9 -99.99 -9.99
2019/10/15 16:36 PDT    3.20   2.89    3  262    4  64.2  62.1 1016.9 -9.9 -9.999 -99.9 -99.99 -9.99
2019/10/15 16:42 PDT    3.05   2.77    3  269    4  63.7  62.1 1016.9 -9.9 -9.999 -99.9 -99.99 -9.99
2019/10/15 16:48 PDT    2.90   2.66    6  282    6  62.6  62.2 1016.9 -9.9 -9.999 -99.9 -99.99 -9.99
2019/10/15 16:54 PDT    2.75   2.53    5  281    6  62.8  62.2 1016.9 -9.9 -9.999 -99.9 -99.99 -9.99
2019/10/15 17:00 PDT    2.61   2.37    6  280    6  62.8  62.2 1016.8 -9.9 -9.999 -99.9 -99.99 -9.99
2019/10/15 17:06 PDT    2.47   2.22    6  280    7  63.0  62.2 1016.9 -9.9 -9.999 -99.9 -99.99 -9.99
2019/10/15 17:12 PDT    2.33   2.11    5  283    7  63.9  62.2 1016.9 -9.9 -9.999 -99.9 -99.99 -9.99
2019/10/15 17:18 PDT    2.19   2.01    3  318    6  64.8  62.4 1016.9 -9.9 -9.999 -99.9 -99.99 -9.99
2019/10/15 17:24 PDT    2.06   1.90    4  286    5  65.3  62.4 1016.9 -9.9 -9.999 -99.9 -99.99 -9.99
2019/10/15 17:30 PDT    1.93   1.80    8  281   10  62.2  62.4 1016.9 -9.9 -9.999 -99.9 -99.99 -9.99
2019/10/15 17:36 PDT    1.80   1.69    8  285   10  61.5  62.4 1016.9 -9.9 -9.999 -99.9 -99.99 -9.99
2019/10/15 17:42 PDT    1.68   1.58    9  283   11  60.6  62.4 1016.9 -9.9 -9.999 -99.9 -99.99 -9.99
2019/10/15 17:48 PDT    1.57   1.45    8  285   11  60.8  62.4 1016.9 -9.9 -9.999 -99.9 -99.99 -9.99
2019/10/15 17:54 PDT    1.46   1.36    8  286   10  60.4  62.4 1017.0 -9.9 -9.999 -99.9 -99.99 -9.99
2019/10/15 18:00 PDT    1.35   1.28    9  285   11  59.5  62.4 1017.1 -9.9 -9.999 -99.9 -99.99 -9.99
2019/10/15 18:06 PDT    1.25   1.20    8  286   11  59.5  62.4 1017.1 -9.9 -9.999 -99.9 -99.99 -9.99
2019/10/15 18:12 PDT    1.16   1.08    9  284   12  59.0  62.4 1017.1 -9.9 -9.999 -99.9 -99.99 -9.99
2019/10/15 18:18 PDT    1.07   0.97   10  284   12  58.5  62.4 1017.1 -9.9 -9.999 -99.9 -99.99 -9.99
2019/10/15 18:24 PDT    0.99   0.90    9  285   11  58.5  62.4 1017.0 -9.9 -9.999 -99.9 -99.99 -9.99
2019/10/15 18:30 PDT    0.91   0.86   10  286   12  57.9  62.4 1017.0 -9.9 -9.999 -99.9 -99.99 -9.99
2019/10/15 18:36 PDT    0.84   0.77    6  283   11  58.3  62.4 1017.0 -9.9 -9.999 -99.9 -99.99 -9.99
2019/10/15 18:42 PDT    0.77   0.68    8  284   10  57.9  62.4 1017.0 -9.9 -9.999 -99.9 -99.99 -9.99
2019/10/15 18:48 PDT    0.71   0.62    8  287   10  57.9  62.4 1017.0 -9.9 -9.999 -99.9 -99.99 -9.99
2019/10/15 18:54 PDT    0.65   0.57    7  283   10  57.9  62.4 1016.9 -9.9 -9.999 -99.9 -99.99 -9.99
2019/10/15 19:00 PDT    0.61   0.53    9  287   11  57.6  62.4 1017.0 -9.9 -9.999 -99.9 -99.99 -9.99
2019/10/15 19:06 PDT    0.56   0.50    9  286   11  57.6  62.4 1017.0 -9.9 -9.999 -99.9 -99.99 -9.99
2019/10/15 19:12 PDT    0.53   0.48    9  286   12  57.0  62.4 1017.0 -9.9 -9.999 -99.9 -99.99 -9.99
2019/10/15 19:18 PDT    0.49   0.44    9  284   11  57.0  62.4 1017.1 -9.9 -9.999 -99.9 -99.99 -9.99
2019/10/15 19:24 PDT    0.47   0.38   10  283   12  56.7  62.4 1017.2 -9.9 -9.999 -99.9 -99.99 -9.99
2019/10/15 19:30 PDT    0.45   0.36    8  282   11  56.8  62.4 1017.3 -9.9 -9.999 -99.9 -99.99 -9.99
2019/10/15 19:36 PDT    0.44   0.35    8  283   10  56.5  62.4 1017.3 -9.9 -9.999 -99.9 -99.99 -9.99
2019/10/15 19:42 PDT    0.43   0.33    5  281    8  56.7  62.4 1017.2 -9.9 -9.999 -99.9 -99.99 -9.99
2019/10/15 19:48 PDT    0.43   0.34    6  284    8  57.4  62.4 1017.2 -9.9 -9.999 -99.9 -99.99 -9.99
2019/10/15 19:54 PDT    0.43   0.35    5  287    8  57.6  62.4 1017.2 -9.9 -9.999 -99.9 -99.99 -9.99
2019/10/15 20:00 PDT    0.44   0.38    6  276    8  57.6  62.4 1017.2 -9.9 -9.999 -99.9 -99.99 -9.99
2019/10/15 20:06 PDT    0.45   0.40    5  280    7  57.9  62.4 1017.3 -9.9 -9.999 -99.9 -99.99 -9.99
2019/10/15 20:12 PDT    0.48   0.41    5  284    6  58.1  62.4 1017.4 -9.9 -9.999 -99.9 -99.99 -9.99
2019/10/15 20:18 PDT    0.50   0.44    6  279    7  57.9  62.4 1017.4 -9.9 -9.999 -99.9 -99.99 -9.99
2019/10/15 20:24 PDT    0.53   0.48    6  282    8  57.7  62.6 1017.4 -9.9 -9.999 -99.9 -99.99 -9.99
2019/10/15 20:30 PDT    0.57   0.53    6  276    9  57.9  62.6 1017.5 -9.9 -9.999 -99.9 -99.99 -9.99
2019/10/15 20:36 PDT    0.62   0.60    5  274    7  58.1  62.6 1017.5 -9.9 -9.999 -99.9 -99.99 -9.99
2019/10/15 20:42 PDT    0.66   0.65    3  286    6  58.3  62.6 1017.4 -9.9 -9.999 -99.9 -99.99 -9.99
2019/10/15 20:48 PDT    0.72   0.71    1   14    3  58.3  62.6 1017.5 -9.9 -9.999 -99.9 -99.99 -9.99
2019/10/15 20:54 PDT    0.78   0.76    1  142    2  57.6  62.6 1017.5 -9.9 -9.999 -99.9 -99.99 -9.99
2019/10/15 21:00 PDT    0.84   0.83    1  111    2  57.4  62.6 1017.4 -9.9 -9.999 -99.9 -99.99 -9.99
2019/10/15 21:06 PDT    0.91   0.87    1  136    2  57.2  62.6 1017.4 -9.9 -9.999 -99.9 -99.99 -9.99
2019/10/15 21:12 PDT    0.98   0.94    2  102    3  57.2  62.6 1017.3 -9.9 -9.999 -99.9 -99.99 -9.99
2019/10/15 21:18 PDT    1.06   1.05    2   96    3  56.8  62.6 1017.3 -9.9 -9.999 -99.9 -99.99 -9.99
2019/10/15 21:24 PDT    1.14   1.15    1   91    3  57.0  62.6 1017.3 -9.9 -9.999 -99.9 -99.99 -9.99
2019/10/15 21:30 PDT    1.23   1.25    1   74    2  57.0  62.6 1017.3 -9.9 -9.999 -99.9 -99.99 -9.99
2019/10/15 21:36 PDT    1.32   1.33    0    1    1  56.8  62.6 1017.3 -9.9 -9.999 -99.9 -99.99 -9.99
2019/10/15 21:42 PDT    1.42   1.42    0   86    0  56.7  62.6 1017.4 -9.9 -9.999 -99.9 -99.99 -9.99
2019/10/15 21:48 PDT    1.52   1.52    1  217    1  57.0  62.6 1017.4 -9.9 -9.999 -99.9 -99.99 -9.99
2019/10/15 21:54 PDT    1.62   1.64    1  259    2  57.4  62.6 1017.4 -9.9 -9.999 -99.9 -99.99 -9.99
2019/10/15 22:00 PDT    1.72   1.76    5  261    7  57.6  62.6 1017.5 -9.9 -9.999 -99.9 -99.99 -9.99
2019/10/15 22:06 PDT    1.83   1.89    5  251    7  57.2  62.6 1017.6 -9.9 -9.999 -99.9 -99.99 -9.99
2019/10/15 22:12 PDT    1.94   2.00    5  260    7  57.2  62.6 1017.6 -9.9 -9.999 -99.9 -99.99 -9.99
2019/10/15 22:18 PDT    2.05   2.08    6  258    8  57.0  62.6 1017.6 -9.9 -9.999 -99.9 -99.99 -9.99
2019/10/15 22:24 PDT    2.16   2.17    4  264    7  56.8  62.6 1017.5 -9.9 -9.999 -99.9 -99.99 -9.99
2019/10/15 22:30 PDT    2.28   2.29    3  274    5  56.7  62.4 1017.6 -9.9 -9.999 -99.9 -99.99 -9.99
2019/10/15 22:36 PDT    2.40   2.43    4  272    5  56.5  62.4 1017.6 -9.9 -9.999 -99.9 -99.99 -9.99
2019/10/15 22:42 PDT    2.51   2.56    4  267    6  56.3  62.4 1017.6 -9.9 -9.999 -99.9 -99.99 -9.99
2019/10/15 22:48 PDT    2.63   2.70    3  278    4  56.1  62.4 1017.6 -9.9 -9.999 -99.9 -99.99 -9.99
2019/10/15 22:54 PDT    2.75   2.78    3  268    3  56.3  62.4 1017.6 -9.9 -9.999 -99.9 -99.99 -9.99
2019/10/15 23:00 PDT    2.87   2.88    2  252    4  56.5  62.4 1017.6 -9.9 -9.999 -99.9 -99.99 -9.99
2019/10/15 23:06 PDT    2.99   2.98    2  259    3  56.5  62.4 1017.6 -9.9 -9.999 -99.9 -99.99 -9.99
2019/10/15 23:12 PDT    3.10   3.11    1  267    2  56.5  62.4 1017.6 -9.9 -9.999 -99.9 -99.99 -9.99
2019/10/15 23:18 PDT    3.22   3.23    2  246    3  56.5  62.4 1017.6 -9.9 -9.999 -99.9 -99.99 -9.99
2019/10/15 23:24 PDT    3.34   3.35    2  223    2  56.7  62.4 1017.6 -9.9 -9.999 -99.9 -99.99 -9.99
2019/10/15 23:30 PDT    3.45   3.47    2  218    3  56.5  62.4 1017.7 -9.9 -9.999 -99.9 -99.99 -9.99
2019/10/15 23:36 PDT    3.56   3.57    3  240    3  56.7  62.4 1017.7 -9.9 -9.999 -99.9 -99.99 -9.99
2019/10/15 23:42 PDT    3.67   3.68    1  257    3  56.3  62.4 1017.7 -9.9 -9.999 -99.9 -99.99 -9.99
2019/10/15 23:48 PDT    3.78   3.80    1  244    2  56.5  62.4 1017.6 -9.9 -9.999 -99.9 -99.99 -9.99
2019/10/15 23:54 PDT    3.89   3.90    1  199    2  56.7  62.4 1017.6 -9.9 -9.999 -99.9 -99.99 -9.99
2019/10/16 00:00 PDT    3.99   4.01    2  249    3  56.7  62.4 1017.7 -9.9 -9.999 -99.9 -99.99 -9.99
2019/10/16 00:06 PDT    4.10   4.09    3  255    4  56.7  62.4 1017.6 -9.9 -9.999 -99.9 -99.99 -9.99
2019/10/16 00:12 PDT    4.20   4.21    2  284    4  56.3  62.4 1017.6 -9.9 -9.999 -99.9 -99.99 -9.99
2019/10/16 00:18 PDT    4.29   4.32    2  247    3  56.5  62.4 1017.6 -9.9 -9.999 -99.9 -99.99 -9.99
2019/10/16 00:24 PDT    4.39   4.42    4  256    5  56.1  62.2 1017.6 -9.9 -9.999 -99.9 -99.99 -9.99
2019/10/16 00:30 PDT    4.48   4.50    4  260    5  56.3  62.2 1017.6 -9.9 -9.999 -99.9 -99.99 -9.99
2019/10/16 00:36 PDT    4.56   4.56    4  278    5  56.1  62.2 1017.6 -9.9 -9.999 -99.9 -99.99 -9.99
2019/10/16 00:42 PDT    4.65   4.64    6  277    7  56.1  62.2 1017.6 -9.9 -9.999 -99.9 -99.99 -9.99
2019/10/16 00:48 PDT    4.73   4.74    5  269    7  56.1  62.2 1017.6 -9.9 -9.999 -99.9 -99.99 -9.99
2019/10/16 00:54 PDT    4.80   4.82    4  270    6  55.8  62.2 1017.6 -9.9 -9.999 -99.9 -99.99 -9.99
2019/10/16 01:00 PDT    4.87   4.89    4  267    6  55.8  62.2 1017.5 -9.9 -9.999 -99.9 -99.99 -9.99
2019/10/16 01:06 PDT    4.94   4.96    4  285    4  55.4  62.2 1017.5 -9.9 -9.999 -99.9 -99.99 -9.99
2019/10/16 01:12 PDT    5.01   5.05    4  284    5  55.6  62.2 1017.4 -9.9 -9.999 -99.9 -99.99 -9.99
2019/10/16 01:18 PDT    5.07   5.10    4  284    4  55.6  62.2 1017.4 -9.9 -9.999 -99.9 -99.99 -9.99
2019/10/16 01:24 PDT    5.12   5.13    3  284    4  55.6  62.2 1017.4 -9.9 -9.999 -99.9 -99.99 -9.99
2019/10/16 01:30 PDT    5.17   5.19    3  285    4  55.8  62.2 1017.4 -9.9 -9.999 -99.9 -99.99 -9.99
2019/10/16 01:36 PDT    5.22   5.26    4  279    5  55.9  62.2 1017.5 -9.9 -9.999 -99.9 -99.99 -9.99
2019/10/16 01:42 PDT    5.26   5.32    4  280    5  55.9  62.2 1017.6 -9.9 -9.999 -99.9 -99.99 -9.99
2019/10/16 01:48 PDT    5.30   5.37    4  267    6  55.9  62.1 1017.6 -9.9 -9.999 -99.9 -99.99 -9.99
2019/10/16 01:54 PDT    5.33   5.42    4  268    5  55.8  62.1 1017.6 -9.9 -9.999 -99.9 -99.99 -9.99
2019/10/16 02:00 PDT    5.36   5.45    4  261    6  55.9  62.1 1017.7 -9.9 -9.999 -99.9 -99.99 -9.99
2019/10/16 02:06 PDT    5.38   5.45    3  268    5  55.8  62.1 1017.7 -9.9 -9.999 -99.9 -99.99 -9.99
2019/10/16 02:12 PDT    5.39   5.46    3  251    4  55.8  62.1 1017.7 -9.9 -9.999 -99.9 -99.99 -9.99
2019/10/16 02:18 PDT    5.40   5.48    4  263    6  55.8  62.1 1017.8 -9.9 -9.999 -99.9 -99.99 -9.99
2019/10/16 02:24 PDT    5.41   5.51    5  260    7  55.8  62.1 1017.8 -9.9 -9.999 -99.9 -99.99 -9.99
2019/10/16 02:30 PDT    5.41   5.52    5  260    7  55.8  62.1 1017.7 -9.9 -9.999 -99.9 -99.99 -9.99
2019/10/16 02:36 PDT    5.40   5.51    6  256    7  55.6  62.1 1017.7 -9.9 -9.999 -99.9 -99.99 -9.99
2019/10/16 02:42 PDT    5.39   5.48    6  256    9  55.4  62.1 1017.6 -9.9 -9.999 -99.9 -99.99 -9.99
2019/10/16 02:48 PDT    5.37   5.43    5  265    8  55.6  62.1 1017.6 -9.9 -9.999 -99.9 -99.99 -9.99
2019/10/16 02:54 PDT    5.35   5.38    6  251    7  55.0  62.1 1017.6 -9.9 -9.999 -99.9 -99.99 -9.99
2019/10/16 03:00 PDT    5.32   5.33    6  253    7  55.4  62.1 1017.5 -9.9 -9.999 -99.9 -99.99 -9.99
2019/10/16 03:06 PDT    5.28   5.30    6  254    8  55.2  62.1 1017.5 -9.9 -9.999 -99.9 -99.99 -9.99
2019/10/16 03:12 PDT    5.24   5.30    6  250    7  55.2  62.1 1017.3 -9.9 -9.999 -99.9 -99.99 -9.99
2019/10/16 03:18 PDT    5.20   5.25    6  250    7  55.2  62.1 1017.2 -9.9 -9.999 -99.9 -99.99 -9.99
2019/10/16 03:24 PDT    5.14   5.17    6  252    7  55.0  62.1 1017.1 -9.9 -9.999 -99.9 -99.99 -9.99
2019/10/16 03:30 PDT    5.09   5.07    6  248    7  54.9  62.1 1017.1 -9.9 -9.999 -99.9 -99.99 -9.99
2019/10/16 03:36 PDT    5.03   5.00    4  260    6  55.0  62.1 1017.0 -9.9 -9.999 -99.9 -99.99 -9.99
2019/10/16 03:42 PDT    4.96   4.94    3  286    5  54.9  62.1 1016.9 -9.9 -9.999 -99.9 -99.99 -9.99
2019/10/16 03:48 PDT    4.89   4.85    3  287    3  55.0  62.1 1016.8 -9.9 -9.999 -99.9 -99.99 -9.99
2019/10/16 03:54 PDT    4.81   4.80    2  299    3  55.0  62.1 1016.9 -9.9 -9.999 -99.9 -99.99 -9.99
2019/10/16 04:00 PDT    4.73   4.75    2  321    3  55.0  62.1 1016.7 -9.9 -9.999 -99.9 -99.99 -9.99
2019/10/16 04:06 PDT    4.65   4.64    1  358    3  55.0  62.1 1016.7 -9.9 -9.999 -99.9 -99.99 -9.99
2019/10/16 04:12 PDT    4.56   4.54    1   31    2  54.9  62.1 1016.7 -9.9 -9.999 -99.9 -99.99 -9.99
2019/10/16 04:18 PDT    4.47   4.44    3    1    4  54.1  62.1 1016.6 -9.9 -9.999 -99.9 -99.99 -9.99
2019/10/16 04:24 PDT    4.38   4.36    2  333    4  54.1  62.1 1016.7 -9.9 -9.999 -99.9 -99.99 -9.99
2019/10/16 04:30 PDT    4.29   4.28    8  286   10  54.5  62.1 1016.7 -9.9 -9.999 -99.9 -99.99 -9.99
2019/10/16 04:36 PDT    4.19   4.18    6  285    9  54.7  62.1 1016.8 -9.9 -9.999 -99.9 -99.99 -9.99
2019/10/16 04:42 PDT    4.09   4.05    5  286    8  54.9  62.1 1016.8 -9.9 -9.999 -99.9 -99.99 -9.99
2019/10/16 04:48 PDT    4.00   3.95    7  284    8  54.9  62.1 1016.9 -9.9 -9.999 -99.9 -99.99 -9.99
2019/10/16 04:54 PDT    3.90   3.84    7  283    8  54.7  62.1 1017.0 -9.9 -9.999 -99.9 -99.99 -9.99
2019/10/16 05:00 PDT    3.80   3.73    5  279    8  54.9  62.1 1017.0 -9.9 -9.999 -99.9 -99.99 -9.99
2019/10/16 05:06 PDT    3.70   3.62    6  286    9  54.9  62.1 1017.0 -9.9 -9.999 -99.9 -99.99 -9.99
2019/10/16 05:12 PDT    3.60   3.53    6  285   10  54.9  62.1 1017.0 -9.9 -9.999 -99.9 -99.99 -9.99
2019/10/16 05:18 PDT    3.50   3.43    6  285    9  54.7  62.1 1017.0 -9.9 -9.999 -99.9 -99.99 -9.99
2019/10/16 05:24 PDT    3.41   3.30    6  289    8  54.7  62.1 1017.0 -9.9 -9.999 -99.9 -99.99 -9.99
2019/10/16 05:30 PDT    3.31   3.18    5  282    7  54.7  62.1 1017.0 -9.9 -9.999 -99.9 -99.99 -9.99
2019/10/16 05:36 PDT    3.22   3.11    4  282    5  54.5  62.1 1016.9 -9.9 -9.999 -99.9 -99.99 -9.99
2019/10/16 05:42 PDT    3.13   3.03    3  287    5  54.7  62.1 1016.8 -9.9 -9.999 -99.9 -99.99 -9.99
2019/10/16 05:48 PDT    3.05   2.93    4  287    5  54.5  62.1 1016.8 -9.9 -9.999 -99.9 -99.99 -9.99
2019/10/16 05:54 PDT    2.96   2.82    3  291    4  54.7  62.1 1016.8 -9.9 -9.999 -99.9 -99.99 -9.99
2019/10/16 06:00 PDT    2.88   2.75    3  284    5  54.9  62.1 1016.7 -9.9 -9.999 -99.9 -99.99 -9.99
2019/10/16 06:06 PDT    2.81   2.68    2  279    4  54.7  62.1 1016.6 -9.9 -9.999 -99.9 -99.99 -9.99
2019/10/16 06:12 PDT    2.73   2.62    1  287    3  54.7  62.1 1016.7 -9.9 -9.999 -99.9 -99.99 -9.99
2019/10/16 06:18 PDT    2.66   2.59    1  305    2  54.7  62.1 1016.7 -9.9 -9.999 -99.9 -99.99 -9.99
2019/10/16 06:24 PDT    2.60   2.55    1  302    1  54.7  62.1 1016.8 -9.9 -9.999 -99.9 -99.99 -9.99
2019/10/16 06:30 PDT    2.54   2.49    2   68    2  54.1  62.1 1016.7 -9.9 -9.999 -99.9 -99.99 -9.99
2019/10/16 06:36 PDT    2.48   2.42    1   51    2  53.8  62.1 1016.8 -9.9 -9.999 -99.9 -99.99 -9.99
2019/10/16 06:42 PDT    2.43   2.38    2   31    2  53.6  61.9 1016.8 -9.9 -9.999 -99.9 -99.99 -9.99
2019/10/16 06:48 PDT    2.38   2.35    1   42    2  53.8  61.9 1016.9 -9.9 -9.999 -99.9 -99.99 -9.99
2019/10/16 06:54 PDT    2.34   2.30    2   31    2  53.6  61.9 1016.9 -9.9 -9.999 -99.9 -99.99 -9.99
2019/10/16 07:00 PDT    2.30   2.24    1   54    3  54.0  61.9 1016.8 -9.9 -9.999 -99.9 -99.99 -9.99
2019/10/16 07:06 PDT    2.27   2.21    1   40    2  54.0  61.9 1016.8 -9.9 -9.999 -99.9 -99.99 -9.99
2019/10/16 07:12 PDT    2.24   2.18    1   82    2  54.0  61.9 1016.8 -9.9 -9.999 -99.9 -99.99 -9.99
2019/10/16 07:18 PDT    2.22   2.15    2   88    3  54.0  61.9 1016.8 -9.9 -9.999 -99.9 -99.99 -9.99
2019/10/16 07:24 PDT    2.20   2.13    1   78    3  53.8  61.9 1016.9 -9.9 -9.999 -99.9 -99.99 -9.99
2019/10/16 07:30 PDT    2.18   2.14    1   63    2  53.8  61.9 1016.9 -9.9 -9.999 -99.9 -99.99 -9.99
2019/10/16 07:36 PDT    2.17   2.15    1   82    3  53.8  61.9 1016.9 -9.9 -9.999 -99.9 -99.99 -9.99
2019/10/16 07:42 PDT    2.17   2.13    1   83    1  54.0  61.7 1016.9 -9.9 -9.999 -99.9 -99.99 -9.99
2019/10/16 07:48 PDT    2.17   2.14    1  118    2  53.6  61.7 1017.0 -9.9 -9.999 -99.9 -99.99 -9.99
2019/10/16 07:54 PDT    2.18   2.15    3   94    4  53.2  61.7 1016.9 -9.9 -9.999 -99.9 -99.99 -9.99
2019/10/16 08:00 PDT    2.19   2.17    3   90    4  53.2  61.7 1017.0 -9.9 -9.999 -99.9 -99.99 -9.99
2019/10/16 08:06 PDT    2.20   2.20    3   90    4  53.4  61.7 1017.0 -9.9 -9.999 -99.9 -99.99 -9.99
2019/10/16 08:12 PDT    2.23   2.23    2  102    4  54.0  61.7 1017.1 -9.9 -9.999 -99.9 -99.99 -9.99
2019/10/16 08:18 PDT    2.25   2.27    2   78    4  54.5  61.7 1016.9 -9.9 -9.999 -99.9 -99.99 -9.99
2019/10/16 08:24 PDT    2.28   2.33    3   91    4  54.3  61.7 1016.9 -9.9 -9.999 -99.9 -99.99 -9.99
2019/10/16 08:30 PDT    2.32   2.41    2   90    4  54.5  61.7 1016.9 -9.9 -9.999 -99.9 -99.99 -9.99
2019/10/16 08:36 PDT    2.36   2.46    2   93    3  54.3  61.7 1017.1 -9.9 -9.999 -99.9 -99.99 -9.99
2019/10/16 08:42 PDT    2.40   2.53    2   88    3  54.1  61.7 1017.2 -9.9 -9.999 -99.9 -99.99 -9.99
2019/10/16 08:48 PDT    2.45   2.58    3   92    3  54.3  61.7 1017.2 -9.9 -9.999 -99.9 -99.99 -9.99
2019/10/16 08:54 PDT    2.51   2.63    3   91    4  54.5  61.7 1017.2 -9.9 -9.999 -99.9 -99.99 -9.99
2019/10/16 09:00 PDT    2.57   2.68    2   86    3  54.5  61.7 1017.2 -9.9 -9.999 -99.9 -99.99 -9.99
2019/10/16 09:06 PDT    2.63   2.76    2   91    3  54.7  61.7 1017.1 -9.9 -9.999 -99.9 -99.99 -9.99
2019/10/16 09:12 PDT    2.70   2.84    3  105    4  54.9  61.7 1017.1 -9.9 -9.999 -99.9 -99.99 -9.99
2019/10/16 09:18 PDT    2.78   2.93    3   92    3  54.9  61.7 1017.1 -9.9 -9.999 -99.9 -99.99 -9.99
2019/10/16 09:24 PDT    2.85   2.99    3  110    3  55.0  61.5 1017.2 -9.9 -9.999 -99.9 -99.99 -9.99
2019/10/16 09:30 PDT    2.93   3.06    2  109    3  55.0  61.5 1017.4 -9.9 -9.999 -99.9 -99.99 -9.99
2019/10/16 09:36 PDT    3.02   3.14    3  109    3  55.4  61.5 1017.5 -9.9 -9.999 -99.9 -99.99 -9.99
2019/10/16 09:42 PDT    3.11   3.24    2  106    3  55.4  61.5 1017.3 -9.9 -9.999 -99.9 -99.99 -9.99
2019/10/16 09:48 PDT    3.20   3.35    3  104    3  55.6  61.5 1017.3 -9.9 -9.999 -99.9 -99.99 -9.99
2019/10/16 09:54 PDT    3.30   3.48    2  102    3  55.6  61.5 1017.4 -9.9 -9.999 -99.9 -99.99 -9.99
2019/10/16 10:00 PDT    3.40   3.59    1  105    2  56.1  61.3 1017.5 -9.9 -9.999 -99.9 -99.99 -9.99
2019/10/16 10:06 PDT    3.50   3.71    1  101    3  56.3  61.3 1017.5 -9.9 -9.999 -99.9 -99.99 -9.99
2019/10/16 10:12 PDT    3.61   3.81    2  114    3  56.3  61.3 1017.5 -9.9 -9.999 -99.9 -99.99 -9.99
2019/10/16 10:18 PDT    3.71   3.91    3  142    4  56.8  61.3 1017.7 -9.9 -9.999 -99.9 -99.99 -9.99
2019/10/16 10:24 PDT    3.82   4.01    2  114    4  56.7  61.3 1017.5 -9.9 -9.999 -99.9 -99.99 -9.99
2019/10/16 10:30 PDT    3.93   4.10    3  117    3  56.7  61.3 1017.4 -9.9 -9.999 -99.9 -99.99 -9.99
2019/10/16 10:36 PDT    4.05   4.22    1  251    3  56.3  61.3 1017.3 -9.9 -9.999 -99.9 -99.99 -9.99
2019/10/16 10:42 PDT    4.16   4.34    1  139    2  56.7  61.3 1017.2 -9.9 -9.999 -99.9 -99.99 -9.99
2019/10/16 10:48 PDT    4.27   4.46    3  162    4  56.7  61.3 1017.2 -9.9 -9.999 -99.9 -99.99 -9.99
2019/10/16 10:54 PDT    4.39   4.57    2  156    3  56.8  61.3 1017.1 -9.9 -9.999 -99.9 -99.99 -9.99
2019/10/16 11:00 PDT    4.50   4.66    2  161    3  56.8  61.3 1017.1 -9.9 -9.999 -99.9 -99.99 -9.99
2019/10/16 11:06 PDT    4.61   4.74    3  143    3  57.0  61.3 1017.0 -9.9 -9.999 -99.9 -99.99 -9.99
2019/10/16 11:12 PDT    4.73   4.86    2  132    3  56.8  61.3 1017.0 -9.9 -9.999 -99.9 -99.99 -9.99
2019/10/16 11:18 PDT    4.84   5.01    2  136    3  57.2  61.3 1016.9 -9.9 -9.999 -99.9 -99.99 -9.99
2019/10/16 11:24 PDT    4.95   5.12    3  165    4  57.4  61.3 1016.9 -9.9 -9.999 -99.9 -99.99 -9.99
2019/10/16 11:30 PDT    5.06   5.18    3  188    3  57.4  61.3 1016.7 -9.9 -9.999 -99.9 -99.99 -9.99
2019/10/16 11:36 PDT    5.16   5.26    3  164    4  57.4  61.3 1016.7 -9.9 -9.999 -99.9 -99.99 -9.99
2019/10/16 11:42 PDT    5.27   5.38    3  186    4  57.6  61.3 1016.7 -9.9 -9.999 -99.9 -99.99 -9.99
2019/10/16 11:48 PDT    5.37   5.48    3  190    4  57.6  61.3 1016.6 -9.9 -9.999 -99.9 -99.99 -9.99
2019/10/16 11:54 PDT    5.46   5.57    2  201    3  57.7  61.3 1016.4 -9.9 -9.999 -99.9 -99.99 -9.99
2019/10/16 12:00 PDT    5.56   5.65    1  191    2  57.9  61.3 1016.4 -9.9 -9.999 -99.9 -99.99 -9.99
2019/10/16 12:06 PDT    5.65   5.72    2  184    3  58.3  61.3 1016.4 -9.9 -9.999 -99.9 -99.99 -9.99
2019/10/16 12:12 PDT    5.73   5.79    2  180    3  58.3  61.3 1016.3 -9.9 -9.999 -99.9 -99.99 -9.99
2019/10/16 12:18 PDT    5.82   5.89    2  150    3  58.3  61.3 1016.1 -9.9 -9.999 -99.9 -99.99 -9.99
2019/10/16 12:24 PDT    5.89   6.01    2  120    3  59.0  61.3 1016.0 -9.9 -9.999 -99.9 -99.99 -9.99
2019/10/16 12:30 PDT    5.97   6.09    2  197    3  58.8  61.3 1016.1 -9.9 -9.999 -99.9 -99.99 -9.99
2019/10/16 12:36 PDT    6.04   6.10    2  146    3  59.0  61.3 1016.0 -9.9 -9.999 -99.9 -99.99 -9.99
2019/10/16 12:42 PDT    6.10   6.17    2  159    3  60.1  61.3 1015.8 -9.9 -9.999 -99.9 -99.99 -9.99
2019/10/16 12:48 PDT    6.16   6.28    2  161    3  59.7  61.3 1015.8 -9.9 -9.999 -99.9 -99.99 -9.99
2019/10/16 12:54 PDT    6.21   6.33    1  154    3  59.9  61.3 1015.6 -9.9 -9.999 -99.9 -99.99 -9.99
2019/10/16 13:00 PDT    6.26   6.36    2  209    2  59.9  61.3 1015.6 -9.9 -9.999 -99.9 -99.99 -9.99
2019/10/16 13:06 PDT    6.30   6.42    2  187    2  59.9  61.3 1015.4 -9.9 -9.999 -99.9 -99.99 -9.99
2019/10/16 13:12 PDT    6.34   6.48    2  196    2  60.1  61.3 1015.4 -9.9 -9.999 -99.9 -99.99 -9.99
2019/10/16 13:18 PDT    6.37   6.49    1  186    2  60.4  61.3 1015.3 -9.9 -9.999 -99.9 -99.99 -9.99
2019/10/16 13:24 PDT    6.40   6.52    2  205    3  59.9  61.3 1015.2 -9.9 -9.999 -99.9 -99.99 -9.99
2019/10/16 13:30 PDT    6.42   6.54    2  198    3  60.3  61.3 1015.3 -9.9 -9.999 -99.9 -99.99 -9.99
2019/10/16 13:36 PDT    6.43   6.55    2  202    3  60.1  61.3 1015.1 -9.9 -9.999 -99.9 -99.99 -9.99
2019/10/16 13:42 PDT    6.44   6.57    2  193    3  60.4  61.3 1015.0 -9.9 -9.999 -99.9 -99.99 -9.99
2019/10/16 13:48 PDT    6.44   6.59    2  168    3  60.8  61.3 1014.9 -9.9 -9.999 -99.9 -99.99 -9.99
2019/10/16 13:54 PDT    6.44   6.56    2  164    3  60.8  61.3 1014.7 -9.9 -9.999 -99.9 -99.99 -9.99
2019/10/16 14:00 PDT    6.43   6.52    2  228    2  60.6  61.3 1014.7 -9.9 -9.999 -99.9 -99.99 -9.99
2019/10/16 14:06 PDT    6.41   6.50    1  191    2  61.2  61.3 1014.5 -9.9 -9.999 -99.9 -99.99 -9.99
2019/10/16 14:12 PDT    6.39   6.47    2  203    3  60.6  61.3 1014.6 -9.9 -9.999 -99.9 -99.99 -9.99
2019/10/16 14:18 PDT    6.36   6.42    2  216    2  60.6  61.3 1014.5 -9.9 -9.999 -99.9 -99.99 -9.99
2019/10/16 14:24 PDT    6.32   6.37    2  220    3  60.6  61.3 1014.5 -9.9 -9.999 -99.9 -99.99 -9.99
2019/10/16 14:30 PDT    6.28   6.32    3  241    3  60.4  61.3 1014.5 -9.9 -9.999 -99.9 -99.99 -9.99
2019/10/16 14:36 PDT    6.23   6.23    2  259    3  60.6  61.3 1014.3 -9.9 -9.999 -99.9 -99.99 -9.99
2019/10/16 14:42 PDT    6.17   6.14    2  288    3  61.5  61.3 1014.2 -9.9 -9.999 -99.9 -99.99 -9.99
2019/10/16 14:48 PDT    6.11   6.08    4  259    5  61.0  61.3 1014.2 -9.9 -9.999 -99.9 -99.99 -9.99
2019/10/16 14:54 PDT    6.04   6.01    3  273    5  61.3  61.3 1014.1 -9.9 -9.999 -99.9 -99.99 -9.99
2019/10/16 15:00 PDT    5.97   5.93    4  273    5  60.8  61.3 1014.0 -9.9 -9.999 -99.9 -99.99 -9.99
2019/10/16 15:06 PDT    5.89   5.86    3  281    4  60.8  61.3 1014.1 -9.9 -9.999 -99.9 -99.99 -9.99
2019/10/16 15:12 PDT    5.80   5.76    3  280    5  61.2  61.3 1014.1 -9.9 -9.999 -99.9 -99.99 -9.99
2019/10/16 15:18 PDT    5.70   5.61    6  281    9  61.7  61.3 1014.2 -9.9 -9.999 -99.9 -99.99 -9.99
2019/10/16 15:24 PDT    5.60   5.50    8  281   11  61.3  61.3 1014.3 -9.9 -9.999 -99.9 -99.99 -9.99
2019/10/16 15:30 PDT    5.50   5.40    9  283   12  61.2  61.3 1014.2 -9.9 -9.999 -99.9 -99.99 -9.99
2019/10/16 15:36 PDT    5.39   5.28    8  278   11  60.6  61.3 1014.1 -9.9 -9.999 -99.9 -99.99 -9.99
2019/10/16 15:42 PDT    5.27   5.16    8  266   12  60.6  61.3 1014.1 -9.9 -9.999 -99.9 -99.99 -9.99
2019/10/16 15:48 PDT    5.15   5.00    9  283   12  60.3  61.3 1014.0 -9.9 -9.999 -99.9 -99.99 -9.99
2019/10/16 15:54 PDT    5.02   4.85    8  284   12  60.4  61.3 1014.0 -9.9 -9.999 -99.9 -99.99 -9.99
2019/10/16 16:00 PDT    4.89   4.71    8  284   11  60.4  61.3 1014.0 -9.9 -9.999 -99.9 -99.99 -9.99
2019/10/16 16:06 PDT    4.75   4.57    6  262    9  60.4  61.3 1014.1 -9.9 -9.999 -99.9 -99.99 -9.99
2019/10/16 16:12 PDT    4.61   4.39    5  274    8  60.6  61.5 1013.9 -9.9 -9.999 -99.9 -99.99 -9.99
2019/10/16 16:18 PDT    4.47   4.22    6  279   10  60.8  61.5 1013.8 -9.9 -9.999 -99.9 -99.99 -9.99
2019/10/16 16:24 PDT    4.32   4.12    8  261   10  60.6  61.7 1013.8 -9.9 -9.999 -99.9 -99.99 -9.99
2019/10/16 16:30 PDT    4.17   4.01    7  269    9  60.8  61.7 1013.8 -9.9 -9.999 -99.9 -99.99 -9.99
2019/10/16 16:36 PDT    4.02   3.86    7  284   11  60.8  61.7 1013.6 -9.9 -9.999 -99.9 -99.99 -9.99
2019/10/16 16:42 PDT    3.87   3.71    6  280    9  60.8  61.7 1013.5 -9.9 -9.999 -99.9 -99.99 -9.99
2019/10/16 16:48 PDT    3.71   3.55    7  284    9  60.8  61.7 1013.5 -9.9 -9.999 -99.9 -99.99 -9.99
2019/10/16 16:54 PDT    3.56   3.39    8  282   11  61.0  61.7 1013.5 -9.9 -9.999 -99.9 -99.99 -9.99
2019/10/16 17:00 PDT    3.40   3.25   11  275   15  61.0  61.9 1013.4 -9.9 -9.999 -99.9 -99.99 -9.99
2019/10/16 17:06 PDT    3.25   3.12   10  280   14  61.0  61.9 1013.3 -9.9 -9.999 -99.9 -99.99 -9.99
2019/10/16 17:12 PDT    3.09   3.00   10  280   14  61.2  61.9 1013.3 -9.9 -9.999 -99.9 -99.99 -9.99
2019/10/16 17:18 PDT    2.94   2.85   11  278   13  61.0  61.9 1013.3 -9.9 -9.999 -99.9 -99.99 -9.99
2019/10/16 17:24 PDT    2.78   2.70   11  278   15  61.0  61.9 1013.3 -9.9 -9.999 -99.9 -99.99 -9.99
2019/10/16 17:30 PDT    2.63   2.57   10  279   14  60.8  61.9 1013.1 -9.9 -9.999 -99.9 -99.99 -9.99
2019/10/16 17:36 PDT    2.48   2.45   11  278   14  60.6  61.9 1013.2 -9.9 -9.999 -99.9 -99.99 -9.99
2019/10/16 17:42 PDT    2.34   2.31    9  276   15  60.6  62.1 1013.2 -9.9 -9.999 -99.9 -99.99 -9.99
2019/10/16 17:48 PDT    2.19   2.19    9  282   13  60.6  62.1 1013.2 -9.9 -9.999 -99.9 -99.99 -9.99
2019/10/16 17:54 PDT    2.05   2.08    9  281   11  60.6  62.1 1013.2 -9.9 -9.999 -99.9 -99.99 -9.99
2019/10/16 18:00 PDT    1.92   1.93    8  281   10  60.8  62.1 1013.1 -9.9 -9.999 -99.9 -99.99 -9.99
2019/10/16 18:06 PDT    1.79   1.79    9  277   11  60.8  62.1 1013.0 -9.9 -9.999 -99.9 -99.99 -9.99
2019/10/16 18:12 PDT    1.66   1.69   10  282   14  60.8  62.1 1012.9 -9.9 -9.999 -99.9 -99.99 -9.99
2019/10/16 18:18 PDT    1.54   1.62    8  279   11  60.8  62.1 1013.0 -9.9 -9.999 -99.9 -99.99 -9.99
2019/10/16 18:24 PDT    1.42   1.53    9  279   12  60.8  62.1 1013.0 -9.9 -9.999 -99.9 -99.99 -9.99
2019/10/16 18:30 PDT    1.31   1.44    8  274   11  60.6  62.1 1013.0 -9.9 -9.999 -99.9 -99.99 -9.99
2019/10/16 18:36 PDT    1.20   1.33    7  270   10  60.4  62.1 1013.0 -9.9 -9.999 -99.9 -99.99 -9.99
2019/10/16 18:42 PDT    1.10   1.22    8  272   11  60.4  62.1 1013.0 -9.9 -9.999 -99.9 -99.99 -9.99
2019/10/16 18:48 PDT    1.01   1.13    6  273   10  60.4  62.1 1012.9 -9.9 -9.999 -99.9 -99.99 -9.99
2019/10/16 18:54 PDT    0.92   1.08    6  268    9  60.3  62.1 1012.9 -9.9 -9.999 -99.9 -99.99 -9.99
2019/10/16 19:00 PDT    0.84   1.02    6  275    9  60.3  62.1 1013.0 -9.9 -9.999 -99.9 -99.99 -9.99
2019/10/16 19:06 PDT    0.76   0.95    6  272    9  60.4  62.1 1013.0 -9.9 -9.999 -99.9 -99.99 -9.99
2019/10/16 19:12 PDT    0.69   0.85    8  280   11  60.4  62.1 1013.0 -9.9 -9.999 -99.9 -99.99 -9.99
2019/10/16 19:18 PDT    0.62   0.75    5  282    8  60.6  62.1 1013.0 -9.9 -9.999 -99.9 -99.99 -9.99
2019/10/16 19:24 PDT    0.56   0.68    7  279    9  60.3  62.1 1013.1 -9.9 -9.999 -99.9 -99.99 -9.99
2019/10/16 19:30 PDT    0.51   0.64    7  276   10  60.1  62.1 1013.2 -9.9 -9.999 -99.9 -99.99 -9.99
2019/10/16 19:36 PDT    0.46   0.60    7  278   10  60.1  62.1 1013.2 -9.9 -9.999 -99.9 -99.99 -9.99
2019/10/16 19:42 PDT    0.42   0.54    5  273   10  60.1  62.1 1013.2 -9.9 -9.999 -99.9 -99.99 -9.99
2019/10/16 19:48 PDT    0.39   0.47    3  272    6  60.1  62.1 1013.1 -9.9 -9.999 -99.9 -99.99 -9.99
2019/10/16 19:54 PDT    0.36   0.44    4  272    6  59.9  62.1 1013.2 -9.9 -9.999 -99.9 -99.99 -9.99
2019/10/16 20:00 PDT    0.33   0.39    4  266    7  60.1  62.1 1013.2 -9.9 -9.999 -99.9 -99.99 -9.99
2019/10/16 20:06 PDT    0.32   0.36    4  265    8  60.1  62.1 1013.1 -9.9 -9.999 -99.9 -99.99 -9.99
2019/10/16 20:12 PDT    0.30   0.34    4  267    6  59.9  62.1 1013.1 -9.9 -9.999 -99.9 -99.99 -9.99
2019/10/16 20:18 PDT    0.30   0.35    4  284    6  60.1  62.1 1013.1 -9.9 -9.999 -99.9 -99.99 -9.99
2019/10/16 20:24 PDT    0.30   0.34    3  264    5  59.9  61.9 1013.0 -9.9 -9.999 -99.9 -99.99 -9.99
2019/10/16 20:30 PDT    0.30   0.34    2  268    4  60.3  61.9 1012.9 -9.9 -9.999 -99.9 -99.99 -9.99
2019/10/16 20:36 PDT    0.31   0.34    0  300    3  59.9  61.9 1012.9 -9.9 -9.999 -99.9 -99.99 -9.99
2019/10/16 20:42 PDT    0.33   0.32    3  225    3  59.7  61.9 1013.0 -9.9 -9.999 -99.9 -99.99 -9.99
2019/10/16 20:48 PDT    0.35   0.34    1  152    3  59.9  61.9 1013.0 -9.9 -9.999 -99.9 -99.99 -9.99
2019/10/16 20:54 PDT    0.38   0.39    2  181    3  60.1  61.9 1012.9 -9.9 -9.999 -99.9 -99.99 -9.99
2019/10/16 21:00 PDT    0.41   0.44    5  223    6  59.9  61.9 1013.1 -9.9 -9.999 -99.9 -99.99 -9.99
2019/10/16 21:06 PDT    0.45   0.47    3  184    5  59.7  61.9 1013.0 -9.9 -9.999 -99.9 -99.99 -9.99
2019/10/16 21:12 PDT    0.49   0.49    4  202    5  59.9  61.9 1013.0 -9.9 -9.999 -99.9 -99.99 -9.99
2019/10/16 21:18 PDT    0.53   0.55    5  220    6  59.7  61.9 1012.9 -9.9 -9.999 -99.9 -99.99 -9.99
2019/10/16 21:24 PDT    0.59   0.59    3  169    5  59.7  61.9 1012.9 -9.9 -9.999 -99.9 -99.99 -9.99
2019/10/16 21:30 PDT    0.64   0.65    6  223    7  59.9  61.9 1013.0 -9.9 -9.999 -99.9 -99.99 -9.99
2019/10/16 21:36 PDT    0.70   0.70    5  234    7  59.7  61.9 1013.1 -9.9 -9.999 -99.9 -99.99 -9.99
2019/10/16 21:42 PDT    0.77   0.77    6  248    8  59.9  61.9 1013.1 -9.9 -9.999 -99.9 -99.99 -9.99
2019/10/16 21:48 PDT    0.84   0.85    7  247    9  59.7  61.9 1013.1 -9.9 -9.999 -99.9 -99.99 -9.99
2019/10/16 21:54 PDT    0.91   0.93    6  255    9  59.5  61.9 1013.0 -9.9 -9.999 -99.9 -99.99 -9.99
2019/10/16 22:00 PDT    0.99   1.00    5  252    8  59.7  61.9 1012.9 -9.9 -9.999 -99.9 -99.99 -9.99
2019/10/16 22:06 PDT    1.08   1.08    4  249    6  59.7  61.9 1012.9 -9.9 -9.999 -99.9 -99.99 -9.99
2019/10/16 22:12 PDT    1.16   1.19    6  246    7  59.9  61.9 1012.9 -9.9 -9.999 -99.9 -99.99 -9.99
2019/10/16 22:18 PDT    1.25   1.31    5  252    6  59.7  61.9 1013.1 -9.9 -9.999 -99.9 -99.99 -9.99
2019/10/16 22:24 PDT    1.35   1.41    7  253    8  59.5  61.9 1013.2 -9.9 -9.999 -99.9 -99.99 -9.99
2019/10/16 22:30 PDT    1.44   1.50    4  239    7  59.9  61.7 1013.1 -9.9 -9.999 -99.9 -99.99 -9.99
2019/10/16 22:36 PDT    1.54   1.60    6  256    8  59.7  61.7 1013.2 -9.9 -9.999 -99.9 -99.99 -9.99
2019/10/16 22:42 PDT    1.64   1.70    6  257    8  59.5  61.7 1013.2 -9.9 -9.999 -99.9 -99.99 -9.99
2019/10/16 22:48 PDT    1.75   1.83    6  266    8  59.5  61.7 1013.3 -9.9 -9.999 -99.9 -99.99 -9.99
2019/10/16 22:54 PDT    1.86   1.96    6  265    8  59.7  61.7 1013.4 -9.9 -9.999 -99.9 -99.99 -9.99
2019/10/16 23:00 PDT    1.97   2.05    6  266    8  59.9  61.7 1013.4 -9.9 -9.999 -99.9 -99.99 -9.99
2019/10/16 23:06 PDT    2.08   2.14    6  266    8  59.9  61.7 1013.3 -9.9 -9.999 -99.9 -99.99 -9.99
2019/10/16 23:12 PDT    2.19   2.24    7  265    9  59.7  61.7 1013.2 -9.9 -9.999 -99.9 -99.99 -9.99
2019/10/16 23:18 PDT    2.30   2.36    6  271    8  59.7  61.7 1013.1 -9.9 -9.999 -99.9 -99.99 -9.99
2019/10/16 23:24 PDT    2.41   2.48    6  267    8  59.9  61.7 1013.1 -9.9 -9.999 -99.9 -99.99 -9.99
2019/10/16 23:30 PDT    2.53   2.60    6  265    8  59.7  61.7 1013.0 -9.9 -9.999 -99.9 -99.99 -9.99
2019/10/16 23:36 PDT    2.64   2.73    6  263    8  59.9  61.7 1013.0 -9.9 -9.999 -99.9 -99.99 -9.99
2019/10/16 23:42 PDT    2.76   2.85    6  263    8  59.9  61.7 1013.0 -9.9 -9.999 -99.9 -99.99 -9.99
2019/10/16 23:48 PDT    2.87   2.94    6  246    7  59.7  61.7 1012.9 -9.9 -9.999 -99.9 -99.99 -9.99
2019/10/16 23:54 PDT    2.98   3.09    5  246    7  59.9  61.7 1012.9 -9.9 -9.999 -99.9 -99.99 -9.99
2019/10/17 00:00 PDT    3.10   3.23    7  252    8  59.9  61.7 1013.0 -9.9 -9.999 -99.9 -99.99 -9.99
2019/10/17 00:06 PDT    3.21   3.34    6  246    7  59.9  61.7 1013.0 -9.9 -9.999 -99.9 -99.99 -9.99
2019/10/17 00:12 PDT    3.32   3.43    4  259    6  59.9  61.7 1013.0 -9.9 -9.999 -99.9 -99.99 -9.99
2019/10/17 00:18 PDT    3.43   3.53    3  260    4  59.7  61.7 1013.0 -9.9 -9.999 -99.9 -99.99 -9.99
2019/10/17 00:24 PDT    3.53   3.62    3  271    4  59.7  61.7 1013.1 -9.9 -9.999 -99.9 -99.99 -9.99
2019/10/17 00:30 PDT    3.64   3.73    3  247    5  59.7  61.7 1013.1 -9.9 -9.999 -99.9 -99.99 -9.99
2019/10/17 00:36 PDT    3.74   3.88    5  229    8  59.2  61.7 1013.0 -9.9 -9.999 -99.9 -99.99 -9.99
2019/10/17 00:42 PDT    3.84   4.02    5  249    6  59.0  61.7 1013.1 -9.9 -9.999 -99.9 -99.99 -9.99
2019/10/17 00:48 PDT    3.94   4.10    4  261    5  59.0  61.7 1013.1 -9.9 -9.999 -99.9 -99.99 -9.99
2019/10/17 00:54 PDT    4.03   4.14    5  274    6  59.0  61.7 1013.1 -9.9 -9.999 -99.9 -99.99 -9.99
2019/10/17 01:00 PDT    4.12   4.23    4  260    6  58.6  61.7 1012.9 -9.9 -9.999 -99.9 -99.99 -9.99
2019/10/17 01:06 PDT    4.21   4.39    4  273    5  58.6  61.7 1013.0 -9.9 -9.999 -99.9 -99.99 -9.99
2019/10/17 01:12 PDT    4.30   4.48    5  281    6  58.3  61.7 1013.1 -9.9 -9.999 -99.9 -99.99 -9.99
2019/10/17 01:18 PDT    4.38   4.54    5  271    6  58.3  61.7 1013.1 -9.9 -9.999 -99.9 -99.99 -9.99
2019/10/17 01:24 PDT    4.46   4.61    3  264    6  58.3  61.5 1013.0 -9.9 -9.999 -99.9 -99.99 -9.99
2019/10/17 01:30 PDT    4.54   4.68    3  255    4  58.3  61.5 1012.9 -9.9 -9.999 -99.9 -99.99 -9.99
2019/10/17 01:36 PDT    4.61   4.77    4  254    6  58.5  61.5 1013.0 -9.9 -9.999 -99.9 -99.99 -9.99
2019/10/17 01:42 PDT    4.68   4.87    4  252    5  58.5  61.5 1013.0 -9.9 -9.999 -99.9 -99.99 -9.99
2019/10/17 01:48 PDT    4.75   4.97    3  288    4  58.1  61.5 1013.1 -9.9 -9.999 -99.9 -99.99 -9.99
2019/10/17 01:54 PDT    4.81   5.01    4  262    5  58.3  61.5 1013.1 -9.9 -9.999 -99.9 -99.99 -9.99
2019/10/17 02:00 PDT    4.87   5.05    5  266    7  58.3  61.5 1013.1 -9.9 -9.999 -99.9 -99.99 -9.99
2019/10/17 02:06 PDT    4.92   5.13    5  261    6  58.3  61.5 1013.2 -9.9 -9.999 -99.9 -99.99 -9.99
2019/10/17 02:12 PDT    4.97   5.22    5  251    6  58.3  61.5 1013.1 -9.9 -9.999 -99.9 -99.99 -9.99
2019/10/17 02:18 PDT    5.02   5.28    5  256    7  58.5  61.5 1013.1 -9.9 -9.999 -99.9 -99.99 -9.99
2019/10/17 02:24 PDT    5.06   5.28    4  249    5  58.3  61.5 1013.1 -9.9 -9.999 -99.9 -99.99 -9.99
2019/10/17 02:30 PDT    5.10   5.27    3  235    5  58.5  61.5 1013.0 -9.9 -9.999 -99.9 -99.99 -9.99
2019/10/17 02:36 PDT    5.13   5.32    4  249    6  58.5  61.5 1013.0 -9.9 -9.999 -99.9 -99.99 -9.99
2019/10/17 02:42 PDT    5.16   5.41    5  245    6  58.5  61.7 1013.0 -9.9 -9.999 -99.9 -99.99 -9.99
2019/10/17 02:48 PDT    5.18   5.46    4  250    7  58.6  61.7 1013.1 -9.9 -9.999 -99.9 -99.99 -9.99
2019/10/17 02:54 PDT    5.20   5.43    5  259    7  58.6  61.7 1013.1 -9.9 -9.999 -99.9 -99.99 -9.99
2019/10/17 03:00 PDT    5.22   5.43    5  249    6  58.5  61.7 1013.0 -9.9 -9.999 -99.9 -99.99 -9.99
2019/10/17 03:06 PDT    5.23   5.47    4  254    6  58.6  61.7 1013.1 -9.9 -9.999 -99.9 -99.99 -9.99
2019/10/17 03:12 PDT    5.23   5.49    4  260    5  58.6  61.7 1013.1 -9.9 -9.999 -99.9 -99.99 -9.99
2019/10/17 03:18 PDT    5.23   5.48    5  257    6  58.6  61.7 1013.1 -9.9 -9.999 -99.9 -99.99 -9.99
2019/10/17 03:24 PDT    5.23   5.49    4  268    7  58.5  61.5 1013.0 -9.9 -9.999 -99.9 -99.99 -9.99
2019/10/17 03:30 PDT    5.22   5.47    4  281    5  58.5  61.5 1013.0 -9.9 -9.999 -99.9 -99.99 -9.99
2019/10/17 03:36 PDT    5.20   5.43    5  255    7  58.6  61.5 1013.0 -9.9 -9.999 -99.9 -99.99 -9.99
2019/10/17 03:42 PDT    5.18   5.43    4  234    7  58.5  61.5 1012.9 -9.9 -9.999 -99.9 -99.99 -9.99
2019/10/17 03:48 PDT    5.15   5.46    5  245    6  58.5  61.5 1013.0 -9.9 -9.999 -99.9 -99.99 -9.99
2019/10/17 03:54 PDT    5.12   5.42    5  248    7  58.6  61.5 1013.0 -9.9 -9.999 -99.9 -99.99 -9.99
2019/10/17 04:00 PDT    5.09   5.34    5  255    7  58.5  61.5 1013.1 -9.9 -9.999 -99.9 -99.99 -9.99
2019/10/17 04:06 PDT    5.04   5.30    3  241    5  58.3  61.5 1013.0 -9.9 -9.999 -99.9 -99.99 -9.99
2019/10/17 04:12 PDT    5.00   5.27    2  225    4  58.3  61.5 1013.1 -9.9 -9.999 -99.9 -99.99 -9.99
2019/10/17 04:18 PDT    4.95   5.22    1  289    3  58.5  61.5 1013.1 -9.9 -9.999 -99.9 -99.99 -9.99
2019/10/17 04:24 PDT    4.89   5.12    5  261    7  58.5  61.5 1013.1 -9.9 -9.999 -99.9 -99.99 -9.99
2019/10/17 04:30 PDT    4.83   5.02    4  275    6  58.5  61.5 1013.0 -9.9 -9.999 -99.9 -99.99 -9.99
2019/10/17 04:36 PDT    4.77   4.98    5  249    6  58.5  61.5 1013.0 -9.9 -9.999 -99.9 -99.99 -9.99
2019/10/17 04:42 PDT    4.70   4.92    6  260    8  58.5  61.5 1013.0 -9.9 -9.999 -99.9 -99.99 -9.99
2019/10/17 04:48 PDT    4.63   4.84    7  255    9  58.6  61.5 1013.1 -9.9 -9.999 -99.9 -99.99 -9.99
2019/10/17 04:54 PDT    4.56   4.73    8  259   10  58.5  61.5 1013.2 -9.9 -9.999 -99.9 -99.99 -9.99
2019/10/17 05:00 PDT    4.48   4.64    7  277    9  57.9  61.5 1013.2 -9.9 -9.999 -99.9 -99.99 -9.99
2019/10/17 05:06 PDT    4.41   4.56    6  270    9  57.9  61.5 1013.1 -9.9 -9.999 -99.9 -99.99 -9.99
2019/10/17 05:12 PDT    4.32   4.48    6  270    8  57.7  61.5 1013.1 -9.9 -9.999 -99.9 -99.99 -9.99
2019/10/17 05:18 PDT    4.24   4.42    7  275    9  57.7  61.5 1013.2 -9.9 -9.999 -99.9 -99.99 -9.99
2019/10/17 05:24 PDT    4.16   4.34    6  277    8  57.7  61.5 1013.2 -9.9 -9.999 -99.9 -99.99 -9.99
2019/10/17 05:30 PDT    4.07   4.23    7  281    9  57.6  61.5 1013.3 -9.9 -9.999 -99.9 -99.99 -9.99
2019/10/17 05:36 PDT    3.99   4.13    6  280    9  57.7  61.5 1013.3 -9.9 -9.999 -99.9 -99.99 -9.99
2019/10/17 05:42 PDT    3.90   4.05    6  279    8  57.7  61.5 1013.4 -9.9 -9.999 -99.9 -99.99 -9.99
2019/10/17 05:48 PDT    3.82   3.99    6  280    9  57.7  61.5 1013.5 -9.9 -9.999 -99.9 -99.99 -9.99
2019/10/17 05:54 PDT    3.73   3.91    7  279    9  57.6  61.5 1013.5 -9.9 -9.999 -99.9 -99.99 -9.99
2019/10/17 06:00 PDT    3.65   3.79    6  278    9  57.6  61.5 1013.5 -9.9 -9.999 -99.9 -99.99 -9.99
2019/10/17 06:06 PDT    3.56   3.68    6  276    9  57.6  61.5 1013.6 -9.9 -9.999 -99.9 -99.99 -9.99
2019/10/17 06:12 PDT    3.48   3.59    7  281    8  57.4  61.5 1013.6 -9.9 -9.999 -99.9 -99.99 -9.99
2019/10/17 06:18 PDT    3.40   3.53    6  281    8  57.6  61.5 1013.7 -9.9 -9.999 -99.9 -99.99 -9.99
2019/10/17 06:24 PDT    3.32   3.46    5  276    7  57.6  61.5 1013.7 -9.9 -9.999 -99.9 -99.99 -9.99
2019/10/17 06:30 PDT    3.25   3.40    6  282    8  57.6  61.5 1013.8 -9.9 -9.999 -99.9 -99.99 -9.99
2019/10/17 06:36 PDT    3.18   3.31    7  282    9  57.6  61.5 1013.9 -9.9 -9.999 -99.9 -99.99 -9.99
2019/10/17 06:42 PDT    3.11   3.21    6  280    7  58.1  61.5 1014.1 -9.9 -9.999 -99.9 -99.99 -9.99
2019/10/17 06:48 PDT    3.04   3.14    6  283    7  58.1  61.5 1014.1 -9.9 -9.999 -99.9 -99.99 -9.99
2019/10/17 06:54 PDT    2.98   3.06    5  285    7  58.3  61.5 1014.2 -9.9 -9.999 -99.9 -99.99 -9.99
2019/10/17 07:00 PDT    2.92   3.02    5  281    7  58.3  61.5 1014.2 -9.9 -9.999 -99.9 -99.99 -9.99
2019/10/17 07:06 PDT    2.87   2.99    5  280    7  58.1  61.5 1014.1 -9.9 -9.999 -99.9 -99.99 -9.99
2019/10/17 07:12 PDT    2.82   2.93    6  281    7  58.1  61.5 1014.1 -9.9 -9.999 -99.9 -99.99 -9.99
2019/10/17 07:18 PDT    2.77   2.86    6  281    7  58.1  61.5 1014.2 -9.9 -9.999 -99.9 -99.99 -9.99
2019/10/17 07:24 PDT    2.73   2.82    5  284    7  58.1  61.5 1014.1 -9.9 -9.999 -99.9 -99.99 -9.99
2019/10/17 07:30 PDT    2.69   2.78    5  283    6  58.1  61.3 1014.0 -9.9 -9.999 -99.9 -99.99 -9.99
2019/10/17 07:36 PDT    2.66   2.74    5  282    7  58.3  61.3 1014.0 -9.9 -9.999 -99.9 -99.99 -9.99
2019/10/17 07:42 PDT    2.63   2.72    6  281    8  58.1  61.3 1014.1 -9.9 -9.999 -99.9 -99.99 -9.99
2019/10/17 07:48 PDT    2.60   2.69    5  273    8  58.1  61.3 1014.1 -9.9 -9.999 -99.9 -99.99 -9.99
2019/10/17 07:54 PDT    2.58   2.68    5  269    8  58.3  61.3 1014.0 -9.9 -9.999 -99.9 -99.99 -9.99
2019/10/17 08:00 PDT    2.57   2.66    4  262    6  58.1  61.3 1013.9 -9.9 -9.999 -99.9 -99.99 -9.99
2019/10/17 08:06 PDT    2.56   2.62    2  265    5  58.1  61.3 1014.0 -9.9 -9.999 -99.9 -99.99 -9.99
2019/10/17 08:12 PDT    2.55   2.62    1  283    2  58.5  61.3 1014.1 -9.9 -9.999 -99.9 -99.99 -9.99
2019/10/17 08:18 PDT    2.55   2.62    3  247    4  57.9  61.3 1014.2 -9.9 -9.999 -99.9 -99.99 -9.99
2019/10/17 08:24 PDT    2.55   2.64    2  259    4  58.5  61.3 1014.3 -9.9 -9.999 -99.9 -99.99 -9.99
2019/10/17 08:30 PDT    2.55 -99.99 -999 -999 -999 -99.9 -99.9 -999.9 -9.9 -9.999 -99.9 -99.99 -9.99
2019/10/17 08:36 PDT    2.57 -99.99 -999 -999 -999 -99.9 -99.9 -999.9 -9.9 -9.999 -99.9 -99.99 -9.99
2019/10/17 08:42 PDT    2.58 -99.99 -999 -999 -999 -99.9 -99.9 -999.9 -9.9 -9.999 -99.9 -99.99 -9.99